Sasaki, Shun (2026): Radiosonde measurements from station Minamitorishima (2025-12) [dataset]. Japan Meteorological Agency, Tokyo, PANGAEA, https://doi.org/10.1594/PANGAEA.992655
Always quote citation above when using data! You can download the citation in several formats below.
Published: 2026-02-26 • DOI registered: 2026-03-27
Other version:
Sasaki, Shun (2026): BSRN Station-to-archive file for station Minamitorishima (2025-12) [dataset]. ftp://ftp.bsrn.awi.de/mnm/mnm1225.dat.gz
Project(s):
Coverage:
Latitude: 24.288300 * Longitude: 153.983300
Date/Time Start: 2025-12-01T00:00:00 * Date/Time End: 2025-12-31T23:59:00
Minimum ALTITUDE: 9 m * Maximum ALTITUDE: 33373 m
Event(s):
MNM (Minamitorishima) * Latitude: 24.288300 * Longitude: 153.983300 * Date/Time: 2010-04-01T00:00:00 * Elevation: 7.1 m * Station info: https://hdl.handle.net/10013/epic.44630.d003, update 2022: Minamitorishima.pdf * Location: Minami-Torishima * Method/Device: Monitoring station (MONS) * Comment: BSRN station no: 8; Surface type: water (ocean); Topography type: flat, rural; Horizon: doi:10.1594/PANGAEA.743879; Station scientist: SASAKI Shun (rrc-jma@met.kishou.go.jp)
Parameter(s):
| # | Name | Short Name | Unit | Principal Investigator | Method/Device | Comment |
|---|---|---|---|---|---|---|
| 1 | DATE/TIME | Date/Time | Sasaki, Shun | Geocode | ||
| 2 | ALTITUDE | Altitude | m | Sasaki, Shun | Geocode | |
| 3 | Pressure, at given altitude | PPPP | hPa | Sasaki, Shun | Radiosonde, Meisei, iMS | |
| 4 | Temperature, air | TTT | °C | Sasaki, Shun | Radiosonde, Meisei, iMS | |
| 5 | Dew/frost point | TdTdTd | °C | Sasaki, Shun | Radiosonde, Meisei, iMS | |
| 6 | Wind direction | dd | deg | Sasaki, Shun | Radiosonde, Meisei, iMS | |
| 7 | Wind speed | ff | m/s | Sasaki, Shun | Radiosonde, Meisei, iMS |
License:
Status:
Curation Level: Enhanced curation (CurationLevelC)
Size:
28289 data points
Data
| 1 Date/Time | 2 Altitude [m] | 3 PPPP [hPa] | 4 TTT [°C] | 5 TdTdTd [°C] | 6 dd [deg] | 7 ff [m/s] |
|---|---|---|---|---|---|---|
| 2025-12-01T00:00 | 10731 | 259 | -39.1 | -56.0 | ||
| 2025-12-01T00:00 | 10868 | 254 | -40.0 | -57.3 | ||
| 2025-12-01T00:00 | 10931 | 251 | 265 | 23 | ||
| 2025-12-01T00:01 | 11314 | 238 | 267 | 27 | ||
| 2025-12-01T00:02 | 11690 | 225 | 272 | 27 | ||
| 2025-12-01T00:03 | 12057 | 212 | 269 | 30 | ||
| 2025-12-01T00:03 | 12100 | 211 | -49.7 | |||
| 2025-12-01T00:04 | 12409 | 201 | 263 | 30 | ||
| 2025-12-01T00:05 | 12514 | 198 | -52.0 | |||
| 2025-12-01T00:05 | 12745 | 191 | 261 | 34 | ||
| 2025-12-01T00:06 | 13114 | 180 | 268 | 33 | ||
| 2025-12-01T00:07 | 13223 | 177 | -56.6 | |||
| 2025-12-01T00:07 | 13435 | 172 | 277 | 28 | ||
| 2025-12-01T00:07 | 13495 | 170 | -58.5 | |||
| 2025-12-01T00:08 | 13800 | 162 | 284 | 28 | ||
| 2025-12-01T00:09 | 14168 | 152 | 280 | 27 | ||
| 2025-12-01T00:10 | 14540 | 143 | 278 | 26 | ||
| 2025-12-01T00:10 | 14594 | 142 | -67.8 | |||
| 2025-12-01T00:11 | 14960 | 134 | -70.3 | |||
| 2025-12-01T00:11 | 14976 | 133 | 278 | 23 | ||
| 2025-12-01T00:12 | 15344 | 125 | 288 | 21 | ||
| 2025-12-01T00:13 | 15656 | 119 | 298 | 20 | ||
| 2025-12-01T00:13 | 15832 | 115 | -75.4 | |||
| 2025-12-01T00:14 | 16060 | 111 | 299 | 14 | ||
| 2025-12-01T00:14 | 16214 | 108 | -78.4 | |||
| 2025-12-01T00:15 | 16522 | 102 | 287 | 13 | ||
| 2025-12-01T00:15 | 16650 | 100 | -81.6 | |||
| 2025-12-01T00:16 | 16933 | 95 | -81.1 | |||
| 2025-12-01T00:16 | 16940 | 95 | 287 | 16 | ||
| 2025-12-01T00:16 | 17165 | 91 | -80.0 | |||
| 2025-12-01T00:17 | 17316 | 89 | 272 | 7 | ||
| 2025-12-01T00:17 | 17525 | 85 | -81.6 | |||
| 2025-12-01T00:18 | 17679 | 83 | 253 | 5 | ||
| 2025-12-01T00:18 | 17816 | 81 | -81.8 | |||
| 2025-12-01T00:18 | 17923 | 80 | 212 | 6 | ||
| 2025-12-01T00:19 | 18298 | 74 | -83.2 | |||
| 2025-12-01T00:19 | 18382 | 73 | 192 | 6 | ||
| 2025-12-01T00:19 | 18494 | 72 | -81.7 | |||
| 2025-12-01T00:20 | 18656 | 70 | -80.9 | |||
| 2025-12-01T00:20 | 18711 | 69 | 119 | 3 | ||
| 2025-12-01T00:20 | 18807 | 68 | 76 | 4 | ||
| 2025-12-01T00:20 | 18891 | 67 | -79.1 | |||
| 2025-12-01T00:21 | 19127 | 64 | 84 | 4 | ||
| 2025-12-01T00:21 | 19154 | 64 | -76.8 | |||
| 2025-12-01T00:21 | 19256 | 63 | -76.0 | |||
| 2025-12-01T00:21 | 19283 | 63 | 106 | 5 | ||
| 2025-12-01T00:22 | 19624 | 59 | 84 | 5 | ||
| 2025-12-01T00:23 | 19731 | 58 | -76.2 | |||
| 2025-12-01T00:23 | 19804 | 57 | 83 | 8 | ||
| 2025-12-01T00:23 | 19947 | 56 | -73.8 | 91 | 5 | |
| 2025-12-01T00:24 | 20066 | 55 | 60 | 5 | ||
| 2025-12-01T00:24 | 20095 | 54 | -71.9 | |||
| 2025-12-01T00:24 | 20262 | 53 | 82 | 5 | ||
| 2025-12-01T00:25 | 20387 | 52 | -68.8 | |||
| 2025-12-01T00:25 | 20411 | 52 | 53 | 6 | ||
| 2025-12-01T00:25 | 20627 | 50 | 109 | 5 | ||
| 2025-12-01T00:25 | 20671 | 49 | -68.1 | |||
| 2025-12-01T00:26 | 20759 | 49 | 68 | 5 | ||
| 2025-12-01T00:26 | 20884 | 48 | 36 | 8 | ||
| 2025-12-01T00:27 | 21159 | 46 | 44 | 8 | ||
| 2025-12-01T00:27 | 21197 | 45 | -66.4 | |||
| 2025-12-01T00:27 | 21400 | 44 | 56 | 4 | ||
| 2025-12-01T00:27 | 21471 | 43 | -66.4 | |||
| 2025-12-01T00:28 | 21803 | 41 | 56 | 9 | ||
| 2025-12-01T00:29 | 22077 | 39 | 54 | 6 | ||
| 2025-12-01T00:30 | 22335 | 38 | 54 | 7 | ||
| 2025-12-01T00:30 | 22572 | 36 | 40 | 3 | ||
| 2025-12-01T00:31 | 22711 | 35 | 77 | 3 | ||
| 2025-12-01T00:31 | 22763 | 35 | -60.8 | |||
| 2025-12-01T00:31 | 23056 | 33 | 95 | 1 | ||
| 2025-12-01T00:32 | 23170 | 33 | -58.4 | 334 | 3 | |
| 2025-12-01T00:32 | 23445 | 31 | -56.9 | 7 | 7 | |
| 2025-12-01T00:33 | 23819 | 30 | 328 | 5 | ||
| 2025-12-01T00:34 | 24081 | 28 | -55.1 | |||
| 2025-12-01T00:34 | 24176 | 28 | 27 | 6 | ||
| 2025-12-01T00:35 | 24624 | 26 | 27 | 5 | ||
| 2025-12-01T00:35 | 24771 | 26 | 51 | 3 | ||
| 2025-12-01T00:36 | 25132 | 24 | 9 | 3 | ||
| 2025-12-01T00:36 | 25291 | 24 | 340 | 4 | ||
| 2025-12-01T00:37 | 25570 | 23 | 21 | 6 | ||
| 2025-12-01T00:38 | 25804 | 22 | 43 | 5 | ||
| 2025-12-01T00:38 | 26102 | 21 | 337 | 4 | ||
| 2025-12-01T00:39 | 26324 | 20 | -55.7 | |||
| 2025-12-01T00:39 | 26389 | 20 | 24 | 4 | ||
| 2025-12-01T00:40 | 26683 | 19 | 346 | 4 | ||
| 2025-12-01T00:40 | 26852 | 18 | 12 | 3 | ||
| 2025-12-01T00:41 | 27208 | 17 | -56.3 | |||
| 2025-12-01T00:41 | 27356 | 17 | 353 | 2 | ||
| 2025-12-01T00:41 | 27546 | 17 | 294 | 2 | ||
| 2025-12-01T00:42 | 27822 | 16 | 158 | 2 | ||
| 2025-12-01T00:43 | 28109 | 15 | -57.3 | 187 | 1 | |
| 2025-12-01T00:43 | 28363 | 15 | 128 | 3 | ||
| 2025-12-01T00:44 | 28630 | 14 | 202 | 3 | ||
| 2025-12-01T00:44 | 28908 | 13 | 197 | 2 | ||
| 2025-12-01T00:45 | 29001 | 13 | -58.8 | |||
| 2025-12-01T00:45 | 29145 | 13 | 168 | 6 | ||
| 2025-12-01T00:46 | 29450 | 12 | -57.0 | |||
| 2025-12-01T00:46 | 29662 | 12 | 190 | 13 | ||
| 2025-12-01T00:47 | 30047 | 11 | 209 | 18 | ||
| 2025-12-01T00:47 | 30276 | 11 | -56.5 | |||
| 2025-12-01T00:48 | 30397 | 11 | 240 | 11 | ||
| 2025-12-01T00:48 | 30715 | 10 | -56.8 | |||
| 2025-12-01T00:49 | 30899 | 10 | 216 | 11 | ||
| 2025-12-01T00:49 | 31302 | 9 | -60.6 | |||
| 2025-12-01T00:50 | 31439 | 9 | 201 | 13 | ||
| 2025-12-01T00:50 | 31728 | 9 | 215 | 18 | ||
| 2025-12-01T00:51 | 31803 | 8 | -58.5 | |||
| 2025-12-01T00:51 | 31930 | 8 | -58.0 | 239 | 19 | |
| 2025-12-01T11:30 | 9 | 1017 | 25.7 | 19.8 | 90 | 10 |
| 2025-12-01T11:30 | 12 | 1017 | 25.8 | 19.5 | 90 | 1 |
| 2025-12-01T11:30 | 37 | 1014 | 88 | 5 | ||
| 2025-12-01T11:30 | 81 | 1009 | 92 | 10 | ||
| 2025-12-01T11:30 | 110 | 1006 | 25.0 | 17.2 | ||
| 2025-12-01T11:31 | 383 | 975 | 95 | 11 | ||
| 2025-12-01T11:32 | 717 | 938 | 98 | 10 | ||
| 2025-12-01T11:33 | 1043 | 903 | 99 | 9 | ||
| 2025-12-01T11:34 | 1128 | 894 | 16.1 | 14.1 | ||
| 2025-12-01T11:34 | 1365 | 869 | 87 | 6 | ||
| 2025-12-01T11:34 | 1410 | 865 | 14.4 | 12.6 | ||
| 2025-12-01T11:35 | 1543 | 851 | 13.9 | 12.3 | ||
| 2025-12-01T11:35 | 1572 | 848 | 54 | 2 | ||
| 2025-12-01T11:35 | 1655 | 840 | 15.2 | 9.3 | ||
| 2025-12-01T11:36 | 1800 | 826 | 14.6 | 4.0 | ||
| 2025-12-01T11:36 | 1909 | 815 | 14.4 | 3.8 | ||
| 2025-12-01T11:36 | 1915 | 815 | 4 | 3 | ||
| 2025-12-01T11:36 | 1976 | 809 | 14.5 | 0.7 | ||
| 2025-12-01T11:36 | 2071 | 800 | 335 | 8 | ||
| 2025-12-01T11:36 | 2082 | 799 | 14.6 | -3.7 | ||
| 2025-12-01T11:37 | 2166 | 791 | 14.4 | 0.6 | ||
| 2025-12-01T11:37 | 2259 | 782 | 14.0 | 3.7 | ||
| 2025-12-01T11:37 | 2412 | 768 | 12.6 | 4.8 | ||
| 2025-12-01T11:37 | 2418 | 767 | 318 | 9 | ||
| 2025-12-01T11:38 | 2768 | 736 | 313 | 7 | ||
| 2025-12-01T11:39 | 2840 | 730 | 8.6 | 6.9 | ||
| 2025-12-01T11:39 | 2936 | 721 | 8.1 | 5.9 | ||
| 2025-12-01T11:39 | 3026 | 713 | 8.1 | 5.0 | ||
| 2025-12-01T11:39 | 3128 | 705 | 288 | 7 | ||
| 2025-12-01T11:40 | 3481 | 675 | 301 | 11 | ||
| 2025-12-01T11:40 | 3510 | 673 | 4.4 | 2.6 | ||
| 2025-12-01T11:41 | 3575 | 667 | 5.5 | -2.1 | ||
| 2025-12-01T11:41 | 3698 | 657 | 5.8 | -11.3 | ||
| 2025-12-01T11:41 | 3767 | 652 | 6.0 | -27.3 | ||
| 2025-12-01T11:41 | 3829 | 647 | 319 | 11 | ||
| 2025-12-01T11:42 | 3985 | 635 | 4.5 | -23.5 | ||
| 2025-12-01T11:42 | 4018 | 632 | 4.2 | -15.1 | ||
| 2025-12-01T11:42 | 4069 | 628 | 4.4 | -24.6 | ||
| 2025-12-01T11:42 | 4154 | 622 | 3.7 | -16.1 | ||
| 2025-12-01T11:42 | 4166 | 621 | 316 | 14 | ||
| 2025-12-01T11:43 | 4236 | 615 | 2.8 | -13.1 | ||
| 2025-12-01T11:43 | 4324 | 609 | 2.4 | -22.4 | ||
| 2025-12-01T11:43 | 4400 | 603 | 2.0 | -24.5 | ||
| 2025-12-01T11:43 | 4500 | 595 | 1.6 | -26.8 | ||
| 2025-12-01T11:43 | 4518 | 594 | 307 | 12 | ||
| 2025-12-01T11:44 | 4753 | 577 | 0.4 | -30.1 | ||
| 2025-12-01T11:44 | 4863 | 569 | 312 | 12 | ||
| 2025-12-01T11:44 | 4899 | 567 | -0.7 | -34.0 | ||
| 2025-12-01T11:45 | 5155 | 549 | 307 | 10 | ||
| 2025-12-01T11:45 | 5167 | 548 | -1.8 | -36.6 | ||
| 2025-12-01T11:46 | 5523 | 524 | 312 | 12 | ||
| 2025-12-01T11:46 | 5561 | 521 | -4.5 | -35.3 | ||
| 2025-12-01T11:47 | 5901 | 499 | 302 | 12 | ||
| 2025-12-01T11:47 | 6007 | 492 | -8.2 | -25.2 | ||
| 2025-12-01T11:48 | 6228 | 479 | -9.7 | -20.8 | ||
| 2025-12-01T11:48 | 6269 | 476 | 290 | 11 | ||
| 2025-12-01T11:48 | 6305 | 474 | -9.9 | -23.9 | ||
| 2025-12-01T11:49 | 6430 | 466 | -10.1 | -17.0 | ||
| 2025-12-01T11:49 | 6584 | 457 | 266 | 12 | ||
| 2025-12-01T11:50 | 6861 | 441 | 259 | 8 | ||
| 2025-12-01T11:50 | 6965 | 435 | -14.5 | -15.9 | ||
| 2025-12-01T11:50 | 7085 | 428 | 222 | 11 | ||
| 2025-12-01T11:51 | 7091 | 428 | -14.8 | -17.2 | ||
| 2025-12-01T11:51 | 7280 | 417 | -16.0 | -17.1 | ||
| 2025-12-01T11:51 | 7409 | 410 | 224 | 13 | ||
| 2025-12-01T11:52 | 7461 | 407 | -15.5 | -19.2 | ||
| 2025-12-01T11:52 | 7758 | 391 | 252 | 15 | ||
| 2025-12-01T11:53 | 8022 | 378 | -19.2 | -22.5 | ||
| 2025-12-01T11:53 | 8131 | 372 | 261 | 16 | ||
| 2025-12-01T11:54 | 8169 | 370 | -20.0 | -24.1 | ||
| 2025-12-01T11:54 | 8476 | 355 | 265 | 20 | ||
| 2025-12-01T11:54 | 8532 | 352 | -23.1 | -25.2 | ||
| 2025-12-01T11:55 | 8799 | 340 | -24.1 | -27.4 | ||
| 2025-12-01T11:55 | 8844 | 338 | 251 | 20 | ||
| 2025-12-01T11:56 | 8964 | 332 | -25.4 | -28.5 | ||
| 2025-12-01T11:56 | 9025 | 329 | 236 | 18 | ||
| 2025-12-01T11:56 | 9079 | 327 | -26.0 | -30.2 | ||
| 2025-12-01T11:56 | 9188 | 322 | -26.4 | -31.7 | ||
| 2025-12-01T11:57 | 9383 | 314 | 248 | 21 | ||
| 2025-12-01T11:57 | 9400 | 313 | -27.7 | -34.4 | ||
| 2025-12-01T11:58 | 9731 | 299 | 246 | 21 | ||
| 2025-12-01T11:58 | 9779 | 297 | -31.2 | -35.9 | ||
| 2025-12-01T11:59 | 10039 | 286 | -33.5 | -38.4 | 248 | 22 |
| 2025-12-01T11:59 | 10242 | 278 | -35.2 | -41.6 | ||
| 2025-12-01T11:59 | 10313 | 275 | -35.8 | -43.5 | ||
| 2025-12-01T12:00 | 10429 | 270 | 256 | 25 | ||
| 2025-12-01T12:00 | 10448 | 270 | -36.9 | -46.3 | ||
| 2025-12-01T12:00 | 10550 | 266 | -37.8 | -47.9 | ||
| 2025-12-01T12:00 | 10671 | 261 | -38.8 | -50.5 | ||
| 2025-12-01T12:01 | 10809 | 256 | 271 | 27 | ||
| 2025-12-01T12:01 | 10944 | 251 | -40.0 | -59.2 | ||
| 2025-12-01T12:01 | 11067 | 246 | 275 | 29 | ||
| 2025-12-01T12:02 | 11460 | 232 | 274 | 33 | ||
| 2025-12-01T12:03 | 11852 | 219 | 273 | 37 | ||
| 2025-12-01T12:03 | 11924 | 217 | -47.3 | |||
| 2025-12-01T12:04 | 12241 | 207 | 277 | 35 | ||
| 2025-12-01T12:05 | 12644 | 194 | 279 | 35 | ||
| 2025-12-01T12:06 | 13049 | 182 | 275 | 33 | ||
| 2025-12-01T12:07 | 13167 | 179 | -57.5 | |||
| 2025-12-01T12:07 | 13305 | 175 | 273 | 29 | ||
| 2025-12-01T12:07 | 13470 | 171 | -58.6 | |||
| 2025-12-01T12:08 | 13717 | 164 | 270 | 26 | ||
| 2025-12-01T12:09 | 14152 | 153 | 262 | 25 | ||
| 2025-12-01T12:10 | 14589 | 142 | 256 | 23 | ||
| 2025-12-01T12:10 | 14820 | 137 | -68.8 | |||
| 2025-12-01T12:11 | 14965 | 134 | 264 | 20 | ||
| 2025-12-01T12:11 | 15080 | 131 | -68.8 | |||
| 2025-12-01T12:11 | 15161 | 129 | 259 | 18 | ||
| 2025-12-01T12:12 | 15656 | 119 | 252 | 21 | ||
| 2025-12-01T12:13 | 16145 | 109 | 263 | 20 | ||
| 2025-12-01T12:13 | 16194 | 108 | -78.2 | |||
| 2025-12-01T12:14 | 16611 | 101 | 244 | 19 | ||
| 2025-12-01T12:14 | 16676 | 99 | -80.7 | |||
| 2025-12-01T12:15 | 16820 | 97 | -80.9 | |||
| 2025-12-01T12:15 | 16968 | 94 | 258 | 17 | ||
| 2025-12-01T12:15 | 17155 | 91 | -81.5 | |||
| 2025-12-01T12:15 | 17194 | 91 | 273 | 11 | ||
| 2025-12-01T12:16 | 17275 | 89 | 274 | 7 | ||
| 2025-12-01T12:16 | 17338 | 88 | -81.2 | 281 | 11 | |
| 2025-12-01T23:30 | 9 | 1018 | 26.2 | 19.1 | 100 | 11 |
| 2025-12-01T23:30 | 11 | 1018 | 26.2 | 18.9 | 82 | 3 |
| 2025-12-01T23:30 | 34 | 1015 | 92 | 6 | ||
| 2025-12-01T23:30 | 93 | 1008 | 25.4 | 16.0 | ||
| 2025-12-01T23:30 | 99 | 1008 | 96 | 13 | ||
| 2025-12-01T23:31 | 526 | 960 | 109 | 12 | ||
| 2025-12-01T23:32 | 978 | 911 | 115 | 10 | ||
| 2025-12-01T23:32 | 1013 | 907 | 16.4 | 14.4 | ||
| 2025-12-01T23:33 | 1122 | 895 | 16.5 | 9.4 | ||
| 2025-12-01T23:33 | 1280 | 879 | 15.5 | 9.8 | ||
| 2025-12-01T23:33 | 1317 | 875 | 124 | 6 | ||
| 2025-12-01T23:34 | 1599 | 846 | 14.2 | 10.4 | ||
| 2025-12-01T23:34 | 1622 | 844 | 166 | 6 | ||
| 2025-12-01T23:34 | 1680 | 838 | 14.0 | 7.8 | ||
| 2025-12-01T23:35 | 1850 | 822 | 13.1 | 5.8 | ||
| 2025-12-01T23:35 | 1919 | 815 | 14.4 | -3.9 | ||
| 2025-12-01T23:35 | 1959 | 811 | 15.1 | -12.2 | 163 | 2 |
| 2025-12-01T23:35 | 2112 | 797 | 14.7 | -8.0 | ||
| 2025-12-01T23:36 | 2268 | 782 | 33 | 4 | ||
| 2025-12-01T23:36 | 2305 | 779 | 13.5 | -0.9 | ||
| 2025-12-01T23:36 | 2366 | 773 | 13.4 | 1.1 | ||
| 2025-12-01T23:36 | 2451 | 765 | 12.6 | 5.0 | ||
| 2025-12-01T23:37 | 2562 | 755 | 334 | 3 | ||
| 2025-12-01T23:37 | 2836 | 731 | 259 | 3 | ||
| 2025-12-01T23:38 | 2939 | 722 | 8.4 | 4.2 | ||
| 2025-12-01T23:38 | 3048 | 712 | 199 | 6 | ||
| 2025-12-01T23:38 | 3080 | 709 | 7.8 | 2.1 | ||
| 2025-12-01T23:38 | 3315 | 690 | 6.3 | 0.2 | ||
| 2025-12-01T23:39 | 3425 | 680 | 201 | 5 | ||
| 2025-12-01T23:39 | 3448 | 678 | 5.5 | -0.6 | ||
| 2025-12-01T23:39 | 3573 | 668 | 5.1 | -2.0 | ||
| 2025-12-01T23:39 | 3643 | 662 | 219 | 1 | ||
| 2025-12-01T23:40 | 3982 | 635 | 98 | 3 | ||
| 2025-12-01T23:40 | 4111 | 625 | 136 | 1 | ||
| 2025-12-01T23:41 | 4288 | 612 | 343 | 2 | ||
| 2025-12-01T23:41 | 4373 | 605 | -2.1 | -4.3 | ||
| 2025-12-01T23:41 | 4406 | 603 | -1.5 | -3.7 | ||
| 2025-12-01T23:41 | 4469 | 598 | 315 | 6 | ||
| 2025-12-01T23:42 | 4610 | 587 | -0.8 | -3.3 | ||
| 2025-12-01T23:42 | 4766 | 576 | 246 | 10 | ||
| 2025-12-01T23:42 | 4853 | 570 | -2.7 | -3.7 | ||
| 2025-12-01T23:43 | 5175 | 547 | 233 | 15 | ||
| 2025-12-01T23:43 | 5188 | 546 | -4.0 | -4.7 | ||
| 2025-12-01T23:44 | 5396 | 532 | -4.8 | -5.2 | ||
| 2025-12-01T23:44 | 5563 | 521 | 211 | 18 | ||
| 2025-12-01T23:45 | 5809 | 505 | -7.0 | -7.8 | ||
| 2025-12-01T23:45 | 5938 | 496 | 216 | 18 | ||
| 2025-12-01T23:45 | 6053 | 489 | -7.4 | -8.3 | ||
| 2025-12-01T23:46 | 6279 | 475 | -8.9 | -10.1 | ||
| 2025-12-01T23:46 | 6336 | 472 | 234 | 21 | ||
| 2025-12-01T23:47 | 6574 | 457 | -11.1 | -12.4 | ||
| 2025-12-01T23:47 | 6639 | 453 | -11.1 | -12.4 | ||
| 2025-12-01T23:47 | 6717 | 449 | 234 | 22 | ||
| 2025-12-01T23:47 | 6776 | 445 | -11.5 | -12.5 | ||
| 2025-12-01T23:48 | 7102 | 427 | 239 | 19 | ||
| 2025-12-01T23:49 | 7272 | 417 | -14.9 | -16.4 | ||
| 2025-12-01T23:49 | 7475 | 406 | 250 | 17 | ||
| 2025-12-01T23:50 | 7828 | 388 | -18.9 | -21.3 | ||
| 2025-12-01T23:50 | 7840 | 387 | 266 | 17 | ||
| 2025-12-01T23:51 | 8034 | 377 | -20.4 | -23.2 | ||
| 2025-12-01T23:51 | 8208 | 368 | 260 | 16 | ||
| 2025-12-01T23:51 | 8309 | 363 | -22.2 | -25.7 | ||
| 2025-12-01T23:52 | 8385 | 359 | -22.9 | -27.2 | ||
| 2025-12-01T23:52 | 8586 | 350 | 259 | 18 | ||
| 2025-12-01T23:52 | 8668 | 346 | -25.1 | -29.3 | ||
| 2025-12-01T23:53 | 8902 | 335 | -26.5 | -31.6 | ||
| 2025-12-01T23:53 | 8966 | 332 | 273 | 20 | ||
| 2025-12-01T23:53 | 9006 | 330 | -27.5 | -33.1 | ||
| 2025-12-01T23:53 | 9104 | 325 | -28.4 | -35.2 | ||
| 2025-12-01T23:54 | 9172 | 322 | -29.0 | -37.4 | ||
| 2025-12-01T23:54 | 9304 | 316 | -30.1 | -39.1 | ||
| 2025-12-01T23:54 | 9311 | 316 | 279 | 23 | ||
| 2025-12-01T23:54 | 9425 | 311 | -31.2 | -42.2 | ||
| 2025-12-01T23:54 | 9534 | 306 | -32.0 | -41.9 | ||
| 2025-12-01T23:55 | 9639 | 302 | 281 | 26 | ||
| 2025-12-01T23:55 | 9675 | 300 | -33.0 | -41.8 | ||
| 2025-12-01T23:55 | 9855 | 293 | -34.5 | -43.4 | ||
| 2025-12-01T23:56 | 10007 | 286 | -35.5 | -42.2 | ||
| 2025-12-01T23:56 | 10072 | 284 | 285 | 26 | ||
| 2025-12-01T23:56 | 10199 | 279 | -37.2 | -43.3 | ||
| 2025-12-01T23:56 | 10386 | 271 | -38.5 | -42.9 | ||
| 2025-12-01T23:57 | 10486 | 267 | 278 | 27 | ||
| 2025-12-01T23:57 | 10493 | 267 | -38.5 | -48.0 | ||
| 2025-12-01T23:57 | 10703 | 259 | -40.0 | -49.4 | ||
| 2025-12-01T23:58 | 10879 | 252 | 268 | 29 | ||
| 2025-12-01T23:59 | 11252 | 239 | 273 | 36 | ||
| 2025-12-01T23:59 | 11403 | 233 | -44.8 | |||
| 2025-12-02T00:00 | 11616 | 226 | 275 | 37 | ||
| 2025-12-02T00:01 | 11935 | 215 | 278 | 39 | ||
| 2025-12-02T00:01 | 12067 | 211 | -49.8 | |||
| 2025-12-02T00:02 | 12283 | 204 | 276 | 38 | ||
| 2025-12-02T00:03 | 12626 | 194 | 280 | 39 | ||
| 2025-12-02T00:03 | 12781 | 189 | -54.6 | |||
| 2025-12-02T00:04 | 13010 | 182 | 279 | 38 | ||
| 2025-12-02T00:05 | 13451 | 170 | 272 | 34 | ||
| 2025-12-02T00:05 | 13737 | 162 | -61.3 | |||
| 2025-12-02T00:06 | 13881 | 159 | 260 | 31 | ||
| 2025-12-02T00:07 | 14274 | 149 | 262 | 28 | ||
| 2025-12-02T00:08 | 14668 | 139 | 265 | 25 | ||
| 2025-12-02T00:09 | 15058 | 131 | -69.8 | |||
| 2025-12-02T00:09 | 15078 | 130 | 266 | 25 | ||
| 2025-12-02T00:09 | 15280 | 126 | -71.4 | |||
| 2025-12-02T00:10 | 15450 | 122 | 261 | 25 | ||
| 2025-12-02T00:11 | 15831 | 115 | 262 | 20 | ||
| 2025-12-02T00:11 | 16194 | 108 | -77.9 | |||
| 2025-12-02T00:12 | 16325 | 105 | 245 | 16 | ||
| 2025-12-02T00:12 | 16519 | 102 | -79.9 | |||
| 2025-12-02T00:13 | 16684 | 99 | -80.5 | 245 | 17 | |
| 2025-12-02T00:13 | 17070 | 92 | 250 | 18 | ||
| 2025-12-02T00:14 | 17326 | 88 | -84.1 | |||
| 2025-12-02T00:15 | 17499 | 85 | 277 | 18 | ||
| 2025-12-02T00:15 | 17528 | 85 | -81.0 | |||
| 2025-12-02T00:15 | 17759 | 81 | -79.8 | |||
| 2025-12-02T00:15 | 17819 | 81 | 298 | 12 | ||
| 2025-12-02T00:16 | 17966 | 79 | -79.8 | |||
| 2025-12-02T00:16 | 18022 | 78 | 249 | 6 | ||
| 2025-12-02T00:16 | 18146 | 76 | -77.6 | |||
| 2025-12-02T00:16 | 18291 | 74 | -75.8 | |||
| 2025-12-02T00:16 | 18298 | 74 | 272 | 6 | ||
| 2025-12-02T00:17 | 18578 | 71 | 280 | 4 | ||
| 2025-12-02T00:17 | 18587 | 70 | -75.6 | |||
| 2025-12-02T00:18 | 18787 | 68 | 16 | 3 | ||
| 2025-12-02T00:18 | 18950 | 66 | 90 | 6 | ||
| 2025-12-02T00:18 | 18970 | 66 | -73.7 | |||
| 2025-12-02T00:19 | 19360 | 62 | 123 | 10 | ||
| 2025-12-02T00:19 | 19447 | 61 | -75.2 | |||
| 2025-12-02T00:20 | 19591 | 59 | -74.3 | |||
| 2025-12-02T00:20 | 19661 | 59 | 133 | 5 | ||
| 2025-12-02T00:20 | 19765 | 58 | -71.0 | |||
| 2025-12-02T00:20 | 19855 | 57 | 155 | 6 | ||
| 2025-12-02T00:21 | 20167 | 54 | 120 | 4 | ||
| 2025-12-02T00:22 | 20416 | 52 | -70.5 | 124 | 4 | |
| 2025-12-02T00:22 | 20556 | 50 | 130 | 2 | ||
| 2025-12-02T00:22 | 20653 | 50 | -70.4 | |||
| 2025-12-02T00:23 | 20684 | 49 | 59 | 3 | ||
| 2025-12-02T00:23 | 20924 | 47 | -67.6 | |||
| 2025-12-02T00:23 | 20974 | 47 | 61 | 7 | ||
| 2025-12-02T00:24 | 21275 | 45 | 111 | 7 | ||
| 2025-12-02T00:25 | 21496 | 43 | -65.6 | |||
| 2025-12-02T00:25 | 21523 | 43 | 69 | 7 | ||
| 2025-12-02T00:25 | 21801 | 41 | 77 | 11 | ||
| 2025-12-02T00:26 | 22204 | 38 | 82 | 11 | ||
| 2025-12-02T00:27 | 22367 | 37 | -63.4 | |||
| 2025-12-02T00:27 | 22431 | 37 | 87 | 8 | ||
| 2025-12-02T00:28 | 22759 | 35 | 78 | 5 | ||
| 2025-12-02T00:28 | 23024 | 34 | -63.5 | |||
| 2025-12-02T00:29 | 23177 | 33 | 100 | 11 | ||
| 2025-12-02T00:30 | 23508 | 31 | 79 | 5 | ||
| 2025-12-02T00:30 | 23810 | 30 | 88 | 5 | ||
| 2025-12-02T00:30 | 23834 | 29 | -60.3 | |||
| 2025-12-02T00:31 | 24050 | 28 | 48 | 7 | ||
| 2025-12-02T00:32 | 24368 | 27 | -57.9 | |||
| 2025-12-02T00:32 | 24463 | 27 | 46 | 14 | ||
| 2025-12-02T00:33 | 24857 | 25 | -58.5 | 63 | 12 | |
| 2025-12-02T11:30 | 9 | 1017 | 26.4 | 20.3 | 130 | 8 |
| 2025-12-02T11:30 | 12 | 1016 | 26.4 | 19.8 | 102 | 1 |
| 2025-12-02T11:30 | 45 | 1012 | 134 | 11 | ||
| 2025-12-02T11:31 | 234 | 991 | 24.7 | 17.4 | ||
| 2025-12-02T11:31 | 294 | 984 | 125 | 14 | ||
| 2025-12-02T11:32 | 623 | 948 | 126 | 13 | ||
| 2025-12-02T11:33 | 853 | 923 | 18.9 | 14.6 | ||
| 2025-12-02T11:33 | 960 | 911 | 130 | 15 | ||
| 2025-12-02T11:33 | 1058 | 901 | 18.1 | 9.2 | ||
| 2025-12-02T11:34 | 1214 | 885 | 16.9 | 10.1 | ||
| 2025-12-02T11:34 | 1296 | 876 | 16.4 | 9.8 | ||
| 2025-12-02T11:34 | 1307 | 875 | 124 | 12 | ||
| 2025-12-02T11:34 | 1377 | 868 | 16.1 | 8.3 | ||
| 2025-12-02T11:35 | 1642 | 841 | 14.1 | 9.3 | ||
| 2025-12-02T11:35 | 1660 | 839 | 145 | 6 | ||
| 2025-12-02T11:35 | 1776 | 828 | 13.1 | 10.8 | ||
| 2025-12-02T11:36 | 1886 | 817 | 169 | 4 | ||
| 2025-12-02T11:36 | 1920 | 814 | 12.3 | 10.4 | ||
| 2025-12-02T11:36 | 1972 | 809 | 12.5 | 9.3 | ||
| 2025-12-02T11:36 | 2000 | 806 | 182 | 4 | ||
| 2025-12-02T11:36 | 2029 | 804 | 12.5 | 10.2 | ||
| 2025-12-02T11:36 | 2091 | 798 | 13.2 | 4.9 | ||
| 2025-12-02T11:36 | 2153 | 792 | 202 | 5 | ||
| 2025-12-02T11:37 | 2265 | 781 | 12.6 | -1.7 | ||
| 2025-12-02T11:37 | 2317 | 777 | 12.6 | -6.9 | ||
| 2025-12-02T11:37 | 2466 | 763 | 175 | 7 | ||
| 2025-12-02T11:37 | 2517 | 758 | 11.8 | 5.2 | ||
| 2025-12-02T11:38 | 2800 | 733 | 205 | 11 | ||
| 2025-12-02T11:38 | 2805 | 733 | 9.2 | 4.4 | ||
| 2025-12-02T11:39 | 2927 | 722 | 9.0 | -0.9 | ||
| 2025-12-02T11:39 | 2998 | 716 | 8.7 | -3.5 | ||
| 2025-12-02T11:39 | 3040 | 712 | 9.1 | -8.5 | ||
| 2025-12-02T11:39 | 3116 | 706 | 9.5 | -8.1 | ||
| 2025-12-02T11:39 | 3151 | 703 | 220 | 15 | ||
| 2025-12-02T11:40 | 3281 | 692 | 8.7 | -12.4 | ||
| 2025-12-02T11:40 | 3500 | 674 | 224 | 18 | ||
| 2025-12-02T11:40 | 3584 | 667 | 6.8 | -12.4 | ||
| 2025-12-02T11:41 | 3718 | 656 | 6.1 | -14.1 | ||
| 2025-12-02T11:41 | 3775 | 651 | 5.8 | -10.5 | ||
| 2025-12-02T11:41 | 3822 | 648 | 5.4 | -6.2 | ||
| 2025-12-02T11:41 | 3839 | 646 | 234 | 14 | ||
| 2025-12-02T11:42 | 3933 | 639 | 4.9 | -4.1 | ||
| 2025-12-02T11:42 | 3992 | 634 | 4.5 | -1.3 | ||
| 2025-12-02T11:42 | 4195 | 619 | 242 | 12 | ||
| 2025-12-02T11:43 | 4350 | 607 | 1.7 | -1.5 | ||
| 2025-12-02T11:43 | 4544 | 593 | 248 | 14 | ||
| 2025-12-02T11:43 | 4610 | 588 | 0.0 | -3.4 | ||
| 2025-12-02T11:44 | 4737 | 579 | 251 | 16 | ||
| 2025-12-02T11:44 | 4900 | 567 | -2.2 | -3.2 | ||
| 2025-12-02T11:45 | 5027 | 558 | -2.9 | -7.2 | ||
| 2025-12-02T11:45 | 5085 | 554 | 249 | 17 | ||
| 2025-12-02T11:45 | 5096 | 553 | -3.2 | -5.4 | ||
| 2025-12-02T11:46 | 5385 | 533 | -5.3 | -6.4 | ||
| 2025-12-02T11:46 | 5432 | 530 | -5.0 | -8.9 | ||
| 2025-12-02T11:46 | 5438 | 529 | 255 | 20 | ||
| 2025-12-02T11:46 | 5468 | 528 | -3.3 | -10.8 | ||
| 2025-12-02T11:46 | 5557 | 522 | -3.1 | -14.2 | ||
| 2025-12-02T11:46 | 5593 | 519 | -2.7 | -13.0 | ||
| 2025-12-02T11:46 | 5628 | 517 | -2.6 | -15.6 | ||
| 2025-12-02T11:47 | 5772 | 508 | -3.5 | -13.7 | ||
| 2025-12-02T11:47 | 5796 | 506 | 256 | 21 | ||
| 2025-12-02T11:47 | 5904 | 499 | -4.3 | -14.7 | ||
| 2025-12-02T11:47 | 5956 | 496 | -4.8 | -14.4 | ||
| 2025-12-02T11:47 | 5997 | 493 | -4.9 | -15.8 | ||
| 2025-12-02T11:47 | 6032 | 491 | -5.1 | -15.2 | ||
| 2025-12-02T11:48 | 6079 | 488 | -5.2 | -18.6 | ||
| 2025-12-02T11:48 | 6149 | 484 | 249 | 20 | ||
| 2025-12-02T11:48 | 6233 | 479 | -6.7 | -15.2 | ||
| 2025-12-02T11:48 | 6289 | 475 | -7.2 | -14.1 | ||
| 2025-12-02T11:48 | 6345 | 472 | -7.9 | -11.4 | ||
| 2025-12-02T11:48 | 6402 | 468 | -8.2 | -12.4 | ||
| 2025-12-02T11:49 | 6466 | 465 | -8.0 | -13.6 | ||
| 2025-12-02T11:49 | 6523 | 461 | 259 | 20 | ||
| 2025-12-02T11:50 | 6890 | 440 | 264 | 17 | ||
| 2025-12-02T11:51 | 7236 | 420 | -14.1 | -16.5 | ||
| 2025-12-02T11:51 | 7274 | 418 | 274 | 15 | ||
| 2025-12-02T11:52 | 7635 | 399 | 292 | 16 | ||
| 2025-12-02T11:52 | 7671 | 397 | -16.1 | -19.5 | ||
| 2025-12-02T11:53 | 7926 | 383 | -18.0 | -22.3 | ||
| 2025-12-02T11:53 | 7961 | 382 | 294 | 19 | ||
| 2025-12-02T11:53 | 8130 | 373 | -18.9 | -25.9 | ||
| 2025-12-02T11:54 | 8336 | 363 | 303 | 23 | ||
| 2025-12-02T11:54 | 8592 | 350 | -23.2 | -27.3 | ||
| 2025-12-02T11:55 | 8720 | 344 | 310 | 22 | ||
| 2025-12-02T11:56 | 9084 | 328 | -26.9 | -30.1 | ||
| 2025-12-02T11:56 | 9124 | 326 | 301 | 17 | ||
| 2025-12-02T11:56 | 9393 | 314 | -29.7 | -32.0 | ||
| 2025-12-02T11:57 | 9529 | 308 | 294 | 16 | ||
| 2025-12-02T11:57 | 9570 | 306 | -31.0 | -34.0 | ||
| 2025-12-02T11:57 | 9729 | 299 | -32.0 | -36.9 | ||
| 2025-12-02T11:58 | 9939 | 290 | 296 | 21 | ||
| 2025-12-02T11:58 | 10082 | 285 | -35.0 | -39.6 | ||
| 2025-12-02T11:59 | 10355 | 274 | 293 | 21 | ||
| 2025-12-02T11:59 | 10630 | 263 | 287 | 24 | ||
| 2025-12-02T12:00 | 10697 | 260 | -40.0 | -43.0 | ||
| 2025-12-02T12:00 | 10846 | 255 | 280 | 27 | ||
| 2025-12-02T12:01 | 11238 | 240 | 276 | 29 | ||
| 2025-12-02T12:02 | 11633 | 226 | 279 | 31 | ||
| 2025-12-02T12:03 | 11987 | 214 | -50.5 | 278 | 33 | |
| 2025-12-02T12:04 | 12407 | 201 | 274 | 35 | ||
| 2025-12-02T12:05 | 12870 | 187 | 280 | 39 | ||
| 2025-12-02T12:05 | 12958 | 184 | -57.9 | |||
| 2025-12-02T12:05 | 13187 | 178 | 286 | 38 | ||
| 2025-12-02T12:06 | 13272 | 175 | -58.8 | |||
| 2025-12-02T12:06 | 13579 | 167 | -59.0 | 293 | 30 | |
| 2025-12-02T12:07 | 14050 | 155 | 292 | 28 | ||
| 2025-12-02T12:08 | 14517 | 143 | 278 | 26 | ||
| 2025-12-02T12:09 | 14819 | 136 | -69.2 | |||
| 2025-12-02T12:09 | 14973 | 133 | 277 | 24 | ||
| 2025-12-02T12:10 | 15426 | 123 | 278 | 24 | ||
| 2025-12-02T12:10 | 15441 | 123 | -74.0 | |||
| 2025-12-02T12:11 | 15874 | 114 | 280 | 25 | ||
| 2025-12-02T12:12 | 15960 | 112 | -76.7 | |||
| 2025-12-02T12:12 | 16315 | 105 | 286 | 25 | ||
| 2025-12-02T12:13 | 16575 | 101 | -80.0 | |||
| 2025-12-02T12:13 | 16689 | 99 | 287 | 23 | ||
| 2025-12-02T12:14 | 16905 | 95 | -77.8 | |||
| 2025-12-02T12:14 | 16960 | 94 | 290 | 19 | ||
| 2025-12-02T12:14 | 17238 | 90 | -79.8 | |||
| 2025-12-02T12:14 | 17259 | 89 | 306 | 20 | ||
| 2025-12-02T12:15 | 17492 | 86 | -80.9 | |||
| 2025-12-02T12:15 | 17523 | 85 | 311 | 16 | ||
| 2025-12-02T12:15 | 17681 | 83 | -80.4 | |||
| 2025-12-02T12:15 | 17696 | 83 | 303 | 10 | ||
| 2025-12-02T12:16 | 17946 | 79 | 282 | 6 | ||
| 2025-12-02T12:16 | 18102 | 77 | -82.8 | |||
| 2025-12-02T12:16 | 18129 | 77 | 232 | 8 | ||
| 2025-12-02T12:17 | 18240 | 75 | -82.1 | |||
| 2025-12-02T12:17 | 18320 | 74 | 227 | 13 | ||
| 2025-12-02T12:17 | 18368 | 73 | -81.5 | |||
| 2025-12-02T12:17 | 18472 | 72 | -81.2 | |||
| 2025-12-02T12:18 | 18655 | 70 | -81.2 | |||
| 2025-12-02T12:18 | 18687 | 69 | 208 | 10 | ||
| 2025-12-02T12:19 | 19062 | 65 | -76.7 | 208 | 8 | |
| 2025-12-02T12:20 | 19415 | 61 | 203 | 7 | ||
| 2025-12-02T12:20 | 19444 | 61 | -70.5 | |||
| 2025-12-02T12:20 | 19674 | 58 | 201 | 5 | ||
| 2025-12-02T12:21 | 19714 | 58 | 208 | 1 | ||
| 2025-12-02T12:21 | 19764 | 58 | 16 | 3 | ||
| 2025-12-02T12:21 | 19886 | 56 | 31 | 6 | ||
| 2025-12-02T12:21 | 19919 | 56 | -72.3 | |||
| 2025-12-02T12:21 | 20014 | 55 | 62 | 2 | ||
| 2025-12-02T12:22 | 20115 | 54 | 69 | 4 | ||
| 2025-12-02T12:22 | 20148 | 54 | -69.9 | |||
| 2025-12-02T12:22 | 20261 | 53 | 65 | 5 | ||
| 2025-12-02T12:22 | 20350 | 52 | -68.5 | |||
| 2025-12-02T12:23 | 20469 | 51 | -66.5 | |||
| 2025-12-02T12:23 | 20514 | 51 | 98 | 9 | ||
| 2025-12-02T12:24 | 20860 | 48 | 92 | 9 | ||
| 2025-12-02T12:24 | 20935 | 47 | -65.4 | |||
| 2025-12-02T12:25 | 21105 | 46 | 73 | 10 | ||
| 2025-12-02T12:25 | 21324 | 44 | 110 | 7 | ||
| 2025-12-02T12:25 | 21379 | 44 | -63.2 | |||
| 2025-12-02T12:26 | 21594 | 43 | 164 | 5 | ||
| 2025-12-02T12:27 | 21961 | 40 | 128 | 4 | ||
| 2025-12-02T12:28 | 22152 | 39 | 122 | 4 | ||
| 2025-12-02T12:28 | 22216 | 38 | -62.6 | |||
| 2025-12-02T12:28 | 22377 | 37 | 98 | 5 | ||
| 2025-12-02T12:29 | 22546 | 36 | 111 | 8 | ||
| 2025-12-02T12:29 | 22876 | 35 | 69 | 9 | ||
| 2025-12-02T12:30 | 23025 | 34 | -61.5 | |||
| 2025-12-02T12:30 | 23228 | 33 | 58 | 13 | ||
| 2025-12-02T12:31 | 23343 | 32 | -61.7 | |||
| 2025-12-02T12:31 | 23522 | 31 | 82 | 15 | ||
| 2025-12-02T12:31 | 23708 | 30 | -60.3 | |||
| 2025-12-02T12:32 | 23728 | 30 | 101 | 10 | ||
| 2025-12-02T12:32 | 23852 | 30 | 76 | 10 | ||
| 2025-12-02T12:33 | 24155 | 28 | -60.1 | |||
| 2025-12-02T12:33 | 24268 | 28 | 103 | 10 | ||
| 2025-12-02T12:33 | 24498 | 27 | 100 | 5 | ||
| 2025-12-02T12:34 | 24668 | 26 | 83 | 6 | ||
| 2025-12-02T12:34 | 24864 | 25 | -56.8 | |||
| 2025-12-02T12:35 | 25068 | 24 | 46 | 7 | ||
| 2025-12-02T12:35 | 25231 | 24 | 28 | 7 | ||
| 2025-12-02T12:36 | 25427 | 23 | -57.5 | 56 | 8 | |
| 2025-12-02T23:30 | 9 | 1015 | 28.1 | 23.3 | 170 | 5 |
| 2025-12-02T23:30 | 12 | 1015 | 27.8 | 23.0 | 166 | 1 |
| 2025-12-02T23:30 | 55 | 1010 | 167 | 6 | ||
| 2025-12-02T23:31 | 212 | 992 | 167 | 9 | ||
| 2025-12-02T23:31 | 236 | 990 | 25.1 | 20.6 | ||
| 2025-12-02T23:31 | 516 | 958 | 22.5 | 19.5 | ||
| 2025-12-02T23:32 | 578 | 952 | 169 | 12 | ||
| 2025-12-02T23:32 | 693 | 939 | 21.2 | 17.4 | ||
| 2025-12-02T23:32 | 803 | 927 | 20.9 | 15.2 | ||
| 2025-12-02T23:33 | 942 | 912 | 169 | 10 | ||
| 2025-12-02T23:33 | 1087 | 897 | 19.7 | 13.4 | ||
| 2025-12-02T23:34 | 1239 | 882 | 179 | 6 | ||
| 2025-12-02T23:34 | 1272 | 878 | 19.1 | 11.2 | ||
| 2025-12-02T23:34 | 1385 | 867 | 18.5 | 11.8 | ||
| 2025-12-02T23:34 | 1466 | 859 | 18.2 | 11.8 | ||
| 2025-12-02T23:34 | 1489 | 856 | 268 | 6 | ||
| 2025-12-02T23:35 | 1770 | 829 | 15.9 | 11.5 | ||
| 2025-12-02T23:35 | 1848 | 821 | 254 | 11 | ||
| 2025-12-02T23:35 | 1932 | 813 | 15.2 | 10.0 | ||
| 2025-12-02T23:36 | 2132 | 794 | 13.7 | 8.7 | ||
| 2025-12-02T23:36 | 2211 | 787 | 250 | 9 | ||
| 2025-12-02T23:36 | 2288 | 780 | 12.5 | 8.6 | ||
| 2025-12-02T23:37 | 2562 | 755 | 250 | 10 | ||
| 2025-12-02T23:38 | 2653 | 747 | 10.3 | 7.5 | ||
| 2025-12-02T23:38 | 2910 | 724 | 239 | 12 | ||
| 2025-12-02T23:39 | 3071 | 710 | 9.9 | 5.5 | ||
| 2025-12-02T23:39 | 3255 | 694 | 232 | 10 | ||
| 2025-12-02T23:39 | 3271 | 693 | 9.2 | 4.6 | ||
| 2025-12-02T23:40 | 3381 | 684 | 8.9 | 4.1 | ||
| 2025-12-02T23:40 | 3472 | 677 | 8.7 | 3.1 | ||
| 2025-12-02T23:40 | 3595 | 667 | 262 | 8 | ||
| 2025-12-02T23:41 | 3950 | 638 | 289 | 8 | ||
| 2025-12-02T23:42 | 4196 | 619 | 2.6 | 1.1 | ||
| 2025-12-02T23:42 | 4310 | 611 | 301 | 8 | ||
| 2025-12-02T23:43 | 4638 | 586 | 314 | 10 | ||
| 2025-12-02T23:44 | 4854 | 571 | -1.0 | -1.7 | ||
| 2025-12-02T23:44 | 4866 | 570 | 319 | 12 | ||
| 2025-12-02T23:44 | 5072 | 556 | -0.6 | -3.6 | ||
| 2025-12-02T23:45 | 5220 | 545 | 293 | 10 | ||
| 2025-12-02T23:45 | 5388 | 534 | -2.2 | -5.5 | ||
| 2025-12-02T23:46 | 5582 | 521 | 278 | 10 | ||
| 2025-12-02T23:46 | 5729 | 511 | -4.1 | -8.8 | ||
| 2025-12-02T23:46 | 5804 | 507 | -4.3 | -9.5 | ||
| 2025-12-02T23:47 | 5884 | 501 | -4.7 | -10.1 | ||
| 2025-12-02T23:47 | 5930 | 499 | 297 | 11 | ||
| 2025-12-02T23:47 | 6006 | 494 | -5.2 | -12.8 | ||
| 2025-12-02T23:47 | 6143 | 485 | -5.4 | -14.0 | ||
| 2025-12-02T23:48 | 6247 | 479 | -5.7 | -13.8 | ||
| 2025-12-02T23:48 | 6290 | 476 | 292 | 10 | ||
| 2025-12-02T23:49 | 6669 | 454 | 288 | 14 | ||
| 2025-12-02T23:49 | 6715 | 451 | -9.7 | -15.0 | ||
| 2025-12-02T23:49 | 6814 | 445 | -10.1 | -19.5 | ||
| 2025-12-02T23:50 | 7060 | 431 | 304 | 12 | ||
| 2025-12-02T23:50 | 7086 | 430 | -12.5 | -20.1 | ||
| 2025-12-02T23:50 | 7164 | 425 | -12.6 | -27.0 | ||
| 2025-12-02T23:51 | 7446 | 410 | 305 | 15 | ||
| 2025-12-02T23:51 | 7453 | 409 | -14.9 | -29.0 | ||
| 2025-12-02T23:51 | 7503 | 407 | -15.4 | -24.9 | ||
| 2025-12-02T23:51 | 7641 | 399 | -16.7 | -24.9 | ||
| 2025-12-02T23:52 | 7798 | 391 | -18.2 | -23.3 | ||
| 2025-12-02T23:52 | 7823 | 390 | 308 | 16 | ||
| 2025-12-02T23:52 | 7842 | 389 | -18.3 | -22.8 | ||
| 2025-12-02T23:52 | 7919 | 385 | -18.6 | -24.3 | ||
| 2025-12-02T23:53 | 8138 | 374 | -20.0 | -27.3 | ||
| 2025-12-02T23:53 | 8219 | 369 | 297 | 16 | ||
| 2025-12-02T23:53 | 8342 | 363 | -21.5 | -23.9 | ||
| 2025-12-02T23:54 | 8572 | 352 | -23.4 | -23.7 | ||
| 2025-12-02T23:54 | 8617 | 350 | 275 | 15 | ||
| 2025-12-02T23:54 | 8685 | 347 | -24.1 | -25.1 | ||
| 2025-12-02T23:55 | 8994 | 332 | 267 | 15 | ||
| 2025-12-02T23:55 | 9065 | 329 | -26.9 | -27.8 | ||
| 2025-12-02T23:55 | 9273 | 320 | -28.4 | -29.1 | ||
| 2025-12-02T23:56 | 9399 | 314 | 259 | 17 | ||
| 2025-12-02T23:56 | 9470 | 311 | -29.8 | -31.3 | ||
| 2025-12-02T23:56 | 9562 | 307 | -30.2 | -33.5 | ||
| 2025-12-02T23:57 | 9813 | 296 | 268 | 18 | ||
| 2025-12-02T23:58 | 10140 | 283 | -35.4 | -36.8 | ||
| 2025-12-02T23:58 | 10199 | 280 | 269 | 18 | ||
| 2025-12-02T23:58 | 10440 | 271 | -37.9 | -39.6 | ||
| 2025-12-02T23:59 | 10506 | 268 | -38.5 | -41.9 | ||
| 2025-12-02T23:59 | 10595 | 265 | 278 | 19 | ||
| 2025-12-02T23:59 | 10672 | 262 | -40.0 | -42.1 | ||
| 2025-12-03T00:00 | 10985 | 250 | 282 | 22 | ||
| 2025-12-03T00:01 | 11372 | 236 | 279 | 24 | ||
| 2025-12-03T00:02 | 11755 | 223 | 286 | 25 | ||
| 2025-12-03T00:03 | 12128 | 210 | 285 | 27 | ||
| 2025-12-03T00:04 | 12480 | 199 | 290 | 29 | ||
| 2025-12-03T00:04 | 12563 | 196 | -56.7 | |||
| 2025-12-03T00:04 | 12761 | 190 | 292 | 35 | ||
| 2025-12-03T00:05 | 13150 | 179 | 295 | 34 | ||
| 2025-12-03T00:06 | 13290 | 175 | -61.5 | |||
| 2025-12-03T00:06 | 13490 | 169 | 301 | 34 | ||
| 2025-12-03T00:06 | 13540 | 168 | -61.5 | |||
| 2025-12-03T00:07 | 13930 | 158 | 305 | 30 | ||
| 2025-12-03T00:08 | 14370 | 147 | 305 | 24 | ||
| 2025-12-03T00:08 | 14391 | 146 | -66.6 | |||
| 2025-12-03T00:09 | 14814 | 136 | 300 | 18 | ||
| 2025-12-03T00:10 | 15121 | 129 | -70.5 | |||
| 2025-12-03T00:10 | 15295 | 126 | 266 | 12 | ||
| 2025-12-03T00:10 | 15351 | 124 | -70.8 | |||
| 2025-12-03T00:11 | 15668 | 118 | 247 | 13 | ||
| 2025-12-03T00:12 | 16081 | 110 | 268 | 10 | ||
| 2025-12-03T00:12 | 16094 | 109 | -76.3 | |||
| 2025-12-03T00:13 | 16439 | 103 | -77.5 | |||
| 2025-12-03T00:13 | 16515 | 102 | 274 | 12 | ||
| 2025-12-03T00:13 | 16665 | 99 | -76.6 | |||
| 2025-12-03T00:14 | 16851 | 96 | 293 | 10 | ||
| 2025-12-03T00:14 | 17142 | 91 | -79.8 | |||
| 2025-12-03T00:15 | 17270 | 89 | 264 | 9 | ||
| 2025-12-03T00:16 | 17643 | 83 | -82.3 | |||
| 2025-12-03T00:16 | 17663 | 83 | 292 | 9 | ||
| 2025-12-03T00:16 | 17833 | 81 | -82.3 | |||
| 2025-12-03T00:16 | 17925 | 79 | 266 | 9 | ||
| 2025-12-03T00:17 | 18087 | 77 | -82.6 | |||
| 2025-12-03T00:17 | 18158 | 76 | 279 | 12 | ||
| 2025-12-03T00:17 | 18350 | 73 | 310 | 16 | ||
| 2025-12-03T00:18 | 18704 | 69 | 352 | 9 | ||
| 2025-12-03T00:18 | 18743 | 69 | -78.6 | |||
| 2025-12-03T00:19 | 19046 | 65 | 6 | 10 | ||
| 2025-12-03T00:19 | 19055 | 65 | -78.4 | |||
| 2025-12-03T00:19 | 19348 | 62 | 77 | 8 | ||
| 2025-12-03T00:20 | 19364 | 61 | -77.3 | |||
| 2025-12-03T00:20 | 19521 | 60 | -74.9 | |||
| 2025-12-03T00:20 | 19532 | 60 | 118 | 5 | ||
| 2025-12-03T00:20 | 19607 | 59 | -72.1 | |||
| 2025-12-03T00:21 | 19814 | 57 | -69.9 | 134 | 9 | |
| 2025-12-03T00:21 | 19992 | 55 | -68.9 | |||
| 2025-12-03T00:21 | 20083 | 54 | 144 | 10 | ||
| 2025-12-03T00:21 | 20113 | 54 | -67.9 | |||
| 2025-12-03T00:22 | 20377 | 52 | -67.1 | |||
| 2025-12-03T00:22 | 20420 | 51 | 173 | 6 | ||
| 2025-12-03T00:23 | 20601 | 50 | -66.5 | |||
| 2025-12-03T00:23 | 20745 | 49 | 135 | 3 | ||
| 2025-12-03T00:23 | 20849 | 48 | 119 | 1 | ||
| 2025-12-03T00:24 | 21209 | 45 | 358 | 3 | ||
| 2025-12-03T00:25 | 21428 | 44 | -67.0 | |||
| 2025-12-03T00:25 | 21469 | 43 | 15 | 4 | ||
| 2025-12-03T00:26 | 21844 | 41 | 61 | 11 | ||
| 2025-12-03T00:27 | 22251 | 38 | 78 | 10 | ||
| 2025-12-03T00:27 | 22396 | 37 | -63.2 | |||
| 2025-12-03T00:28 | 22652 | 36 | 81 | 12 | ||
| 2025-12-03T00:28 | 22736 | 35 | -61.4 | |||
| 2025-12-03T00:28 | 22900 | 34 | 81 | 12 | ||
| 2025-12-03T00:28 | 22917 | 34 | -60.1 | |||
| 2025-12-03T00:29 | 23121 | 33 | 90 | 11 | ||
| 2025-12-03T00:29 | 23388 | 32 | 79 | 7 | ||
| 2025-12-03T00:30 | 23672 | 30 | 50 | 12 | ||
| 2025-12-03T00:30 | 23694 | 30 | -60.1 | |||
| 2025-12-03T00:31 | 24057 | 28 | 65 | 12 | ||
| 2025-12-03T00:31 | 24122 | 28 | -58.5 | |||
| 2025-12-03T00:32 | 24303 | 27 | 56 | 13 | ||
| 2025-12-03T00:32 | 24491 | 27 | 72 | 9 | ||
| 2025-12-03T00:33 | 24810 | 25 | 54 | 11 | ||
| 2025-12-03T00:34 | 25195 | 24 | 74 | 6 | ||
| 2025-12-03T00:34 | 25301 | 23 | -56.3 | |||
| 2025-12-03T00:34 | 25331 | 23 | 93 | 6 | ||
| 2025-12-03T00:35 | 25784 | 22 | 92 | 7 | ||
| 2025-12-03T00:36 | 26021 | 21 | 67 | 8 | ||
| 2025-12-03T00:36 | 26087 | 21 | -55.9 | |||
| 2025-12-03T00:37 | 26305 | 20 | 67 | 11 | ||
| 2025-12-03T00:37 | 26700 | 19 | 96 | 8 | ||
| 2025-12-03T00:38 | 26945 | 18 | 70 | 3 | ||
| 2025-12-03T00:38 | 27084 | 18 | 98 | 4 | ||
| 2025-12-03T00:38 | 27121 | 18 | -54.5 | |||
| 2025-12-03T00:39 | 27234 | 17 | 87 | 2 | ||
| 2025-12-03T00:39 | 27348 | 17 | 142 | 4 | ||
| 2025-12-03T00:39 | 27577 | 16 | -54.2 | |||
| 2025-12-03T00:40 | 27738 | 16 | 173 | 6 | ||
| 2025-12-03T00:40 | 28024 | 15 | 169 | 9 | ||
| 2025-12-03T00:41 | 28150 | 15 | -54.3 | |||
| 2025-12-03T00:41 | 28282 | 15 | 172 | 10 | ||
| 2025-12-03T00:42 | 28596 | 14 | 180 | 14 | ||
| 2025-12-03T00:42 | 28977 | 13 | -55.0 | 178 | 8 | |
| 2025-12-03T00:43 | 29426 | 12 | 173 | 9 | ||
| 2025-12-03T00:44 | 29585 | 12 | -56.6 | |||
| 2025-12-03T00:44 | 29804 | 12 | 209 | 8 | ||
| 2025-12-03T00:44 | 29970 | 11 | 222 | 6 | ||
| 2025-12-03T00:45 | 30263 | 11 | -56.4 | |||
| 2025-12-03T00:45 | 30382 | 11 | 201 | 10 | ||
| 2025-12-03T00:46 | 30506 | 10 | -57.9 | 210 | 12 | |
| 2025-12-03T11:30 | 9 | 1015 | 26.6 | 24.1 | 170 | 5 |
| 2025-12-03T11:30 | 13 | 1014 | 26.8 | 24.1 | 149 | 1 |
| 2025-12-03T11:30 | 41 | 1011 | 189 | 4 | ||
| 2025-12-03T11:30 | 92 | 1005 | 184 | 10 | ||
| 2025-12-03T11:30 | 139 | 1000 | 26.3 | 22.6 | ||
| 2025-12-03T11:31 | 420 | 969 | 23.5 | 21.8 | ||
| 2025-12-03T11:31 | 443 | 966 | 176 | 10 | ||
| 2025-12-03T11:32 | 781 | 929 | 180 | 10 | ||
| 2025-12-03T11:33 | 859 | 921 | 20.5 | 17.7 | ||
| 2025-12-03T11:33 | 1108 | 895 | 19.3 | 16.2 | ||
| 2025-12-03T11:33 | 1114 | 894 | 173 | 9 | ||
| 2025-12-03T11:34 | 1356 | 869 | 17.4 | 14.7 | ||
| 2025-12-03T11:34 | 1472 | 858 | 170 | 8 | ||
| 2025-12-03T11:35 | 1807 | 825 | 14.4 | 12.8 | ||
| 2025-12-03T11:35 | 1812 | 824 | 163 | 4 | ||
| 2025-12-03T11:36 | 1896 | 816 | 14.0 | 12.4 | ||
| 2025-12-03T11:36 | 2107 | 796 | 158 | 2 | ||
| 2025-12-03T11:36 | 2128 | 794 | 12.2 | 11.6 | ||
| 2025-12-03T11:36 | 2159 | 791 | 12.6 | 12.0 | ||
| 2025-12-03T11:37 | 2292 | 779 | 218 | 4 | ||
| 2025-12-03T11:37 | 2372 | 771 | 11.0 | 9.8 | ||
| 2025-12-03T11:37 | 2447 | 764 | 10.4 | 7.8 | ||
| 2025-12-03T11:37 | 2452 | 764 | 290 | 5 | ||
| 2025-12-03T11:37 | 2501 | 759 | 10.0 | -1.1 | ||
| 2025-12-03T11:38 | 2534 | 756 | 9.8 | -7.9 | ||
| 2025-12-03T11:38 | 2556 | 754 | 11.5 | -7.9 | ||
| 2025-12-03T11:38 | 2588 | 751 | 13.7 | -7.1 | ||
| 2025-12-03T11:38 | 2609 | 749 | 14.4 | -9.6 | ||
| 2025-12-03T11:38 | 2735 | 738 | 14.3 | -9.7 | ||
| 2025-12-03T11:38 | 2780 | 734 | 291 | 7 | ||
| 2025-12-03T11:38 | 2843 | 729 | 13.1 | 2.9 | ||
| 2025-12-03T11:39 | 3011 | 714 | 12.1 | -0.1 | ||
| 2025-12-03T11:39 | 3086 | 708 | 11.6 | 2.3 | ||
| 2025-12-03T11:39 | 3144 | 703 | 280 | 11 | ||
| 2025-12-03T11:39 | 3170 | 701 | 11.1 | 2.9 | ||
| 2025-12-03T11:40 | 3287 | 691 | 10.5 | -0.3 | ||
| 2025-12-03T11:40 | 3385 | 683 | 10.3 | -4.9 | ||
| 2025-12-03T11:40 | 3438 | 679 | 9.9 | -4.5 | ||
| 2025-12-03T11:40 | 3515 | 673 | 9.9 | -11.4 | ||
| 2025-12-03T11:40 | 3535 | 671 | 286 | 12 | ||
| 2025-12-03T11:40 | 3554 | 669 | 9.7 | -7.9 | ||
| 2025-12-03T11:40 | 3580 | 667 | 9.5 | -2.5 | ||
| 2025-12-03T11:41 | 3613 | 665 | 9.7 | -9.9 | ||
| 2025-12-03T11:41 | 3652 | 661 | 9.5 | -15.9 | ||
| 2025-12-03T11:41 | 3793 | 650 | 8.4 | -16.8 | ||
| 2025-12-03T11:41 | 3899 | 642 | 7.7 | -15.2 | ||
| 2025-12-03T11:41 | 3918 | 641 | 285 | 10 | ||
| 2025-12-03T11:42 | 4017 | 633 | 6.4 | -3.8 | ||
| 2025-12-03T11:42 | 4085 | 628 | 6.1 | -4.7 | ||
| 2025-12-03T11:42 | 4140 | 623 | 5.5 | -2.8 | ||
| 2025-12-03T11:42 | 4268 | 614 | 4.7 | -5.4 | ||
| 2025-12-03T11:42 | 4287 | 612 | 281 | 9 | ||
| 2025-12-03T11:42 | 4330 | 609 | 4.3 | -4.7 | ||
| 2025-12-03T11:43 | 4372 | 606 | 3.9 | -2.7 | ||
| 2025-12-03T11:43 | 4595 | 590 | 2.7 | -2.2 | ||
| 2025-12-03T11:43 | 4648 | 586 | 275 | 9 | ||
| 2025-12-03T11:44 | 4884 | 569 | 0.8 | -4.0 | ||
| 2025-12-03T11:44 | 5005 | 560 | 279 | 6 | ||
| 2025-12-03T11:45 | 5378 | 534 | 273 | 8 | ||
| 2025-12-03T11:45 | 5429 | 531 | -2.8 | -6.8 | ||
| 2025-12-03T11:46 | 5701 | 513 | -4.5 | -9.0 | ||
| 2025-12-03T11:46 | 5766 | 509 | 271 | 8 | ||
| 2025-12-03T11:47 | 5933 | 498 | -6.5 | -10.5 | ||
| 2025-12-03T11:47 | 6014 | 493 | 262 | 8 | ||
| 2025-12-03T11:47 | 6052 | 491 | -6.2 | -16.5 | ||
| 2025-12-03T11:47 | 6127 | 486 | -6.5 | -18.2 | ||
| 2025-12-03T11:47 | 6203 | 481 | -6.8 | -19.7 | ||
| 2025-12-03T11:48 | 6273 | 477 | -7.4 | -13.6 | ||
| 2025-12-03T11:48 | 6385 | 470 | -8.2 | -12.9 | ||
| 2025-12-03T11:48 | 6398 | 469 | 259 | 10 | ||
| 2025-12-03T11:48 | 6496 | 464 | -8.8 | -19.4 | ||
| 2025-12-03T11:49 | 6611 | 457 | -9.5 | -18.2 | ||
| 2025-12-03T11:49 | 6721 | 450 | -9.9 | -21.9 | ||
| 2025-12-03T11:49 | 6775 | 447 | 260 | 10 | ||
| 2025-12-03T11:49 | 6806 | 445 | -9.9 | -25.8 | ||
| 2025-12-03T11:49 | 6872 | 441 | -10.3 | -24.6 | ||
| 2025-12-03T11:50 | 7024 | 433 | -11.5 | -25.3 | ||
| 2025-12-03T11:50 | 7140 | 426 | 256 | 10 | ||
| 2025-12-03T11:50 | 7146 | 426 | -12.1 | -27.3 | ||
| 2025-12-03T11:50 | 7322 | 416 | -13.8 | -28.4 | ||
| 2025-12-03T11:51 | 7504 | 406 | 260 | 11 | ||
| 2025-12-03T11:51 | 7584 | 402 | -16.0 | -28.6 | ||
| 2025-12-03T11:52 | 7857 | 388 | -18.7 | -26.1 | ||
| 2025-12-03T11:52 | 7869 | 387 | 249 | 12 | ||
| 2025-12-03T11:52 | 7993 | 381 | -19.6 | -30.1 | ||
| 2025-12-03T11:53 | 8186 | 371 | 268 | 11 | ||
| 2025-12-03T11:54 | 8408 | 360 | 261 | 12 | ||
| 2025-12-03T11:54 | 8425 | 359 | -22.4 | -40.8 | ||
| 2025-12-03T11:54 | 8763 | 343 | 274 | 14 | ||
| 2025-12-03T11:55 | 8945 | 334 | -25.7 | -47.6 | ||
| 2025-12-03T11:55 | 9068 | 329 | 277 | 14 | ||
| 2025-12-03T11:56 | 9282 | 319 | -28.5 | -48.4 | ||
| 2025-12-03T11:56 | 9306 | 318 | 275 | 14 | ||
| 2025-12-03T11:57 | 9658 | 303 | 282 | 15 | ||
| 2025-12-03T11:58 | 9884 | 293 | -33.7 | -52.7 | ||
| 2025-12-03T11:58 | 9979 | 289 | -34.3 | -50.4 | ||
| 2025-12-03T11:58 | 10028 | 287 | 290 | 15 | ||
| 2025-12-03T11:58 | 10060 | 286 | -34.9 | -42.9 | ||
| 2025-12-03T11:58 | 10113 | 284 | -35.3 | -45.6 | ||
| 2025-12-03T11:58 | 10186 | 281 | -35.6 | -53.6 | ||
| 2025-12-03T11:59 | 10418 | 271 | 293 | 18 | ||
| 2025-12-03T11:59 | 10529 | 267 | -38.2 | -55.2 | ||
| 2025-12-03T12:00 | 10667 | 262 | -39.3 | -53.4 | ||
| 2025-12-03T12:00 | 10756 | 258 | -40.0 | -57.9 | ||
| 2025-12-03T12:00 | 10793 | 257 | 283 | 18 | ||
| 2025-12-03T12:01 | 11170 | 243 | 285 | 22 | ||
| 2025-12-03T12:02 | 11431 | 234 | -45.7 | |||
| 2025-12-03T12:02 | 11605 | 228 | 289 | 20 | ||
| 2025-12-03T12:03 | 11974 | 215 | 296 | 21 | ||
| 2025-12-03T12:04 | 12364 | 203 | 301 | 20 | ||
| 2025-12-03T12:05 | 12600 | 195 | 307 | 24 | ||
| 2025-12-03T12:06 | 12951 | 185 | 309 | 26 | ||
| 2025-12-03T12:06 | 13269 | 176 | -60.6 | |||
| 2025-12-03T12:06 | 13295 | 175 | 306 | 27 | ||
| 2025-12-03T12:07 | 13549 | 168 | -61.4 | |||
| 2025-12-03T12:07 | 13592 | 167 | 299 | 34 | ||
| 2025-12-03T12:08 | 14020 | 156 | 304 | 32 | ||
| 2025-12-03T12:09 | 14163 | 152 | -65.3 | |||
| 2025-12-03T12:09 | 14341 | 148 | 314 | 27 | ||
| 2025-12-03T12:09 | 14592 | 142 | 291 | 17 | ||
| 2025-12-03T12:09 | 14627 | 141 | -66.2 | |||
| 2025-12-03T12:10 | 15068 | 131 | 268 | 20 | ||
| 2025-12-03T12:11 | 15520 | 121 | -72.6 | 274 | 21 | |
| 2025-12-03T12:12 | 15900 | 114 | -75.3 | |||
| 2025-12-03T12:12 | 15995 | 112 | 294 | 19 | ||
| 2025-12-03T12:13 | 16297 | 106 | -76.7 | |||
| 2025-12-03T12:13 | 16405 | 104 | 294 | 14 | ||
| 2025-12-03T12:13 | 16534 | 102 | -77.1 | |||
| 2025-12-03T12:14 | 16675 | 99 | 278 | 12 | ||
| 2025-12-03T12:15 | 17142 | 91 | 254 | 10 | ||
| 2025-12-03T12:15 | 17297 | 89 | -82.4 | |||
| 2025-12-03T12:15 | 17441 | 87 | -81.8 | |||
| 2025-12-03T12:15 | 17471 | 86 | 252 | 6 | ||
| 2025-12-03T12:16 | 17714 | 83 | 259 | 10 | ||
| 2025-12-03T12:16 | 17860 | 80 | -82.6 | |||
| 2025-12-03T12:17 | 17945 | 79 | 261 | 10 | ||
| 2025-12-03T12:17 | 17960 | 79 | -81.9 | 315 | 8 | |
| 2025-12-03T23:30 | 9 | 1015 | 28.6 | 25.2 | 190 | 5 |
| 2025-12-03T23:30 | 11 | 1015 | 28.2 | 25.2 | 186 | 2 |
| 2025-12-03T23:30 | 20 | 1014 | 27.1 | 24.2 | ||
| 2025-12-03T23:30 | 74 | 1007 | 180 | 6 | ||
| 2025-12-03T23:30 | 97 | 1005 | 26.1 | 23.4 | ||
| 2025-12-03T23:31 | 229 | 990 | 192 | 8 | ||
| 2025-12-03T23:32 | 540 | 955 | 22.5 | 21.0 | ||
| 2025-12-03T23:32 | 562 | 953 | 212 | 9 | ||
| 2025-12-03T23:32 | 674 | 941 | 21.8 | 18.8 | ||
| 2025-12-03T23:32 | 730 | 935 | 21.6 | 17.8 | ||
| 2025-12-03T23:32 | 804 | 927 | 22.4 | 12.1 | ||
| 2025-12-03T23:33 | 901 | 917 | 190 | 11 | ||
| 2025-12-03T23:33 | 1039 | 902 | 21.0 | 12.7 | ||
| 2025-12-03T23:34 | 1184 | 887 | 20.2 | 10.3 | ||
| 2025-12-03T23:34 | 1240 | 881 | 186 | 12 | ||
| 2025-12-03T23:34 | 1344 | 871 | 18.8 | 13.2 | ||
| 2025-12-03T23:34 | 1455 | 860 | 18.5 | 11.1 | ||
| 2025-12-03T23:35 | 1499 | 855 | 19.0 | 7.4 | ||
| 2025-12-03T23:35 | 1570 | 848 | 181 | 8 | ||
| 2025-12-03T23:35 | 1663 | 839 | 18.2 | 6.7 | ||
| 2025-12-03T23:35 | 1711 | 834 | 17.8 | 11.1 | ||
| 2025-12-03T23:36 | 1893 | 817 | 205 | 6 | ||
| 2025-12-03T23:36 | 1989 | 808 | 15.8 | 11.8 | ||
| 2025-12-03T23:36 | 2142 | 793 | 15.5 | 10.9 | ||
| 2025-12-03T23:37 | 2218 | 786 | 211 | 6 | ||
| 2025-12-03T23:37 | 2386 | 771 | 14.4 | 7.2 | ||
| 2025-12-03T23:38 | 2487 | 761 | 222 | 7 | ||
| 2025-12-03T23:38 | 2584 | 753 | 12.9 | 7.1 | ||
| 2025-12-03T23:38 | 2657 | 746 | 218 | 7 | ||
| 2025-12-03T23:38 | 2775 | 736 | 12.5 | 3.4 | ||
| 2025-12-03T23:39 | 2990 | 717 | 234 | 9 | ||
| 2025-12-03T23:39 | 3103 | 708 | 10.6 | -1.5 | ||
| 2025-12-03T23:40 | 3198 | 700 | 10.3 | -5.7 | ||
| 2025-12-03T23:40 | 3254 | 695 | 9.9 | -5.6 | ||
| 2025-12-03T23:40 | 3325 | 689 | 253 | 10 | ||
| 2025-12-03T23:40 | 3336 | 688 | 9.7 | -11.0 | ||
| 2025-12-03T23:40 | 3406 | 682 | 9.6 | -23.1 | ||
| 2025-12-03T23:41 | 3510 | 674 | 252 | 7 | ||
| 2025-12-03T23:41 | 3521 | 673 | 8.9 | -25.2 | ||
| 2025-12-03T23:41 | 3748 | 655 | 7.3 | -22.4 | ||
| 2025-12-03T23:41 | 3795 | 651 | 7.0 | -17.9 | ||
| 2025-12-03T23:42 | 3810 | 650 | 258 | 8 | ||
| 2025-12-03T23:42 | 3925 | 640 | 6.6 | -26.9 | ||
| 2025-12-03T23:42 | 4033 | 632 | 5.9 | -21.4 | ||
| 2025-12-03T23:42 | 4110 | 626 | 5.1 | -11.9 | ||
| 2025-12-03T23:43 | 4133 | 624 | 260 | 9 | ||
| 2025-12-03T23:43 | 4249 | 615 | 4.0 | -10.5 | ||
| 2025-12-03T23:43 | 4303 | 611 | 3.5 | -8.2 | ||
| 2025-12-03T23:43 | 4428 | 602 | 2.8 | -10.8 | ||
| 2025-12-03T23:44 | 4461 | 600 | 246 | 10 | ||
| 2025-12-03T23:44 | 4493 | 597 | 2.6 | -14.1 | ||
| 2025-12-03T23:44 | 4669 | 584 | 2.0 | -17.0 | ||
| 2025-12-03T23:44 | 4726 | 580 | 1.6 | -11.2 | ||
| 2025-12-03T23:44 | 4760 | 578 | 1.4 | -10.4 | ||
| 2025-12-03T23:45 | 4800 | 575 | 248 | 8 | ||
| 2025-12-03T23:45 | 4841 | 572 | 1.0 | -14.7 | ||
| 2025-12-03T23:45 | 5000 | 561 | 251 | 9 | ||
| 2025-12-03T23:45 | 5083 | 555 | -0.6 | -13.5 | ||
| 2025-12-03T23:46 | 5166 | 549 | -1.1 | -12.4 | ||
| 2025-12-03T23:46 | 5208 | 546 | -1.3 | -6.6 | ||
| 2025-12-03T23:46 | 5358 | 536 | 252 | 12 | ||
| 2025-12-03T23:46 | 5461 | 529 | -2.9 | -8.4 | ||
| 2025-12-03T23:47 | 5545 | 524 | -3.3 | -8.0 | ||
| 2025-12-03T23:47 | 5611 | 519 | -3.6 | -11.6 | ||
| 2025-12-03T23:47 | 5721 | 512 | 253 | 11 | ||
| 2025-12-03T23:47 | 5771 | 509 | -4.5 | -12.4 | ||
| 2025-12-03T23:48 | 5908 | 500 | -5.3 | -13.6 | ||
| 2025-12-03T23:48 | 5951 | 497 | 239 | 11 | ||
| 2025-12-03T23:48 | 6118 | 487 | -6.9 | -11.5 | ||
| 2025-12-03T23:49 | 6319 | 474 | 254 | 12 | ||
| 2025-12-03T23:49 | 6404 | 469 | -8.7 | -14.3 | ||
| 2025-12-03T23:50 | 6672 | 453 | 263 | 13 | ||
| 2025-12-03T23:50 | 6707 | 451 | -10.7 | -15.3 | ||
| 2025-12-03T23:51 | 7023 | 433 | 257 | 12 | ||
| 2025-12-03T23:51 | 7095 | 429 | -12.8 | -21.8 | ||
| 2025-12-03T23:51 | 7290 | 418 | 250 | 14 | ||
| 2025-12-03T23:52 | 7348 | 415 | -14.2 | -25.2 | ||
| 2025-12-03T23:52 | 7428 | 410 | 250 | 12 | ||
| 2025-12-03T23:52 | 7434 | 410 | -14.4 | -26.8 | ||
| 2025-12-03T23:53 | 7777 | 392 | 256 | 15 | ||
| 2025-12-03T23:53 | 7891 | 386 | -18.1 | -27.4 | ||
| 2025-12-03T23:54 | 8017 | 379 | 259 | 16 | ||
| 2025-12-03T23:54 | 8127 | 374 | -20.0 | -30.2 | ||
| 2025-12-03T23:54 | 8158 | 372 | 261 | 15 | ||
| 2025-12-03T23:54 | 8246 | 368 | -20.2 | -35.6 | ||
| 2025-12-03T23:55 | 8540 | 354 | 275 | 15 | ||
| 2025-12-03T23:55 | 8630 | 349 | -22.8 | -45.2 | ||
| 2025-12-03T23:56 | 8934 | 335 | 278 | 15 | ||
| 2025-12-03T23:56 | 9128 | 326 | -27.4 | -46.2 | ||
| 2025-12-03T23:56 | 9154 | 325 | 273 | 16 | ||
| 2025-12-03T23:57 | 9346 | 316 | 271 | 15 | ||
| 2025-12-03T23:57 | 9497 | 310 | 276 | 12 | ||
| 2025-12-03T23:58 | 9836 | 295 | -32.2 | -57.8 | ||
| 2025-12-03T23:58 | 9874 | 294 | 289 | 17 | ||
| 2025-12-03T23:59 | 10271 | 277 | 290 | 19 | ||
| 2025-12-03T23:59 | 10278 | 277 | -36.3 | -50.0 | ||
| 2025-12-04T00:00 | 10395 | 272 | -37.4 | -48.6 | ||
| 2025-12-04T00:00 | 10456 | 270 | -38.0 | -48.6 | ||
| 2025-12-04T00:00 | 10583 | 265 | -39.0 | -50.1 | ||
| 2025-12-04T00:00 | 10678 | 261 | -39.6 | -50.3 | 288 | 17 |
| 2025-12-04T00:01 | 10731 | 259 | -39.9 | -46.9 | ||
| 2025-12-04T00:01 | 10751 | 259 | -40.0 | -47.0 | ||
| 2025-12-04T00:01 | 11076 | 246 | 288 | 17 | ||
| 2025-12-04T00:02 | 11483 | 232 | 300 | 19 | ||
| 2025-12-04T00:03 | 11788 | 221 | -48.8 | |||
| 2025-12-04T00:03 | 11878 | 218 | 304 | 23 | ||
| 2025-12-04T00:04 | 12264 | 206 | 302 | 26 | ||
| 2025-12-04T00:05 | 12516 | 198 | 304 | 28 | ||
| 2025-12-04T00:06 | 12890 | 187 | -57.4 | |||
| 2025-12-04T00:06 | 12910 | 186 | 304 | 28 | ||
| 2025-12-04T00:07 | 13343 | 174 | 307 | 28 | ||
| 2025-12-04T00:08 | 13641 | 165 | -62.0 | |||
| 2025-12-04T00:08 | 13779 | 162 | 303 | 22 | ||
| 2025-12-04T00:09 | 14218 | 151 | 296 | 17 | ||
| 2025-12-04T00:09 | 14225 | 150 | -66.0 | |||
| 2025-12-04T00:10 | 14665 | 140 | 286 | 14 | ||
| 2025-12-04T00:11 | 14973 | 133 | -71.4 | |||
| 2025-12-04T00:11 | 15078 | 130 | 270 | 17 | ||
| 2025-12-04T00:11 | 15190 | 128 | -71.9 | |||
| 2025-12-04T00:12 | 15347 | 125 | 278 | 20 | ||
| 2025-12-04T00:12 | 15527 | 121 | -73.2 | |||
| 2025-12-04T00:13 | 15802 | 115 | 285 | 16 | ||
| 2025-12-04T00:13 | 16176 | 108 | -77.1 | |||
| 2025-12-04T00:14 | 16278 | 106 | 283 | 13 | ||
| 2025-12-04T00:14 | 16543 | 101 | -79.4 | |||
| 2025-12-04T00:14 | 16620 | 100 | 286 | 8 | ||
| 2025-12-04T00:15 | 16854 | 96 | 240 | 4 | ||
| 2025-12-04T00:15 | 17100 | 92 | -81.9 | |||
| 2025-12-04T00:15 | 17232 | 90 | 252 | 10 | ||
| 2025-12-04T00:16 | 17621 | 84 | -82.9 | |||
| 2025-12-04T00:16 | 17732 | 82 | 280 | 8 | ||
| 2025-12-04T00:17 | 17810 | 81 | -81.0 | |||
| 2025-12-04T00:17 | 18020 | 78 | 288 | 4 | ||
| 2025-12-04T00:17 | 18185 | 76 | 270 | 2 | ||
| 2025-12-04T00:18 | 18244 | 75 | -82.8 | |||
| 2025-12-04T00:18 | 18294 | 74 | 185 | 3 | ||
| 2025-12-04T00:18 | 18522 | 71 | 205 | 7 | ||
| 2025-12-04T00:19 | 18731 | 69 | -81.5 | |||
| 2025-12-04T00:19 | 18834 | 67 | 254 | 6 | ||
| 2025-12-04T00:19 | 19107 | 64 | 297 | 3 | ||
| 2025-12-04T00:20 | 19195 | 63 | 7 | 2 | ||
| 2025-12-04T00:20 | 19268 | 62 | 89 | 3 | ||
| 2025-12-04T00:20 | 19496 | 60 | -74.3 | |||
| 2025-12-04T00:20 | 19503 | 60 | 134 | 8 | ||
| 2025-12-04T00:21 | 19661 | 58 | -74.2 | |||
| 2025-12-04T00:21 | 19763 | 57 | 138 | 12 | ||
| 2025-12-04T00:22 | 20004 | 55 | -72.8 | |||
| 2025-12-04T00:22 | 20045 | 55 | 123 | 8 | ||
| 2025-12-04T00:22 | 20113 | 54 | -70.5 | |||
| 2025-12-04T00:22 | 20326 | 52 | 113 | 9 | ||
| 2025-12-04T00:23 | 20657 | 49 | 155 | 8 | ||
| 2025-12-04T00:24 | 20831 | 48 | 106 | 5 | ||
| 2025-12-04T00:24 | 20962 | 47 | 84 | 7 | ||
| 2025-12-04T00:25 | 21240 | 45 | 103 | 7 | ||
| 2025-12-04T00:25 | 21289 | 44 | -66.5 | |||
| 2025-12-04T00:25 | 21429 | 43 | 89 | 4 | ||
| 2025-12-04T00:26 | 21628 | 42 | 47 | 6 | ||
| 2025-12-04T00:26 | 21951 | 40 | 66 | 12 | ||
| 2025-12-04T00:27 | 22266 | 38 | -66.6 | |||
| 2025-12-04T00:27 | 22379 | 37 | 58 | 13 | ||
| 2025-12-04T00:28 | 22645 | 35 | -64.6 | |||
| 2025-12-04T00:28 | 22806 | 35 | 72 | 14 | ||
| 2025-12-04T00:29 | 23078 | 33 | -62.6 | |||
| 2025-12-04T00:29 | 23229 | 32 | 60 | 11 | ||
| 2025-12-04T00:30 | 23443 | 31 | 55 | 13 | ||
| 2025-12-04T00:30 | 23686 | 30 | 48 | 11 | ||
| 2025-12-04T00:31 | 23770 | 30 | -61.9 | |||
| 2025-12-04T00:31 | 24113 | 28 | 51 | 11 | ||
| 2025-12-04T00:32 | 24412 | 27 | 52 | 11 | ||
| 2025-12-04T00:32 | 24434 | 27 | -59.5 | |||
| 2025-12-04T00:33 | 24628 | 26 | 57 | 14 | ||
| 2025-12-04T00:33 | 24980 | 24 | 120 | 8 | ||
| 2025-12-04T00:34 | 25032 | 24 | -57.7 | |||
| 2025-12-04T00:34 | 25192 | 24 | 147 | 10 | ||
| 2025-12-04T00:34 | 25358 | 23 | 136 | 4 | ||
| 2025-12-04T00:35 | 25468 | 23 | 121 | 3 | ||
| 2025-12-04T00:35 | 25615 | 22 | 130 | 2 | ||
| 2025-12-04T00:35 | 25673 | 22 | -54.4 | |||
| 2025-12-04T00:36 | 26035 | 21 | 66 | 4 | ||
| 2025-12-04T00:37 | 26357 | 20 | 100 | 8 | ||
| 2025-12-04T00:37 | 26390 | 20 | -54.8 | |||
| 2025-12-04T00:38 | 26799 | 18 | 170 | 2 | ||
| 2025-12-04T00:38 | 26941 | 18 | 216 | 4 | ||
| 2025-12-04T00:38 | 27016 | 18 | -52.8 | |||
| 2025-12-04T00:38 | 27195 | 17 | 205 | 6 | ||
| 2025-12-04T00:39 | 27390 | 17 | 173 | 6 | ||
| 2025-12-04T00:40 | 27704 | 16 | 186 | 6 | ||
| 2025-12-04T00:40 | 27995 | 15 | 171 | 9 | ||
| 2025-12-04T00:41 | 28169 | 15 | -53.2 | |||
| 2025-12-04T00:41 | 28479 | 14 | 163 | 5 | ||
| 2025-12-04T00:42 | 28709 | 14 | 153 | 5 | ||
| 2025-12-04T00:42 | 28949 | 13 | 160 | 11 | ||
| 2025-12-04T00:42 | 28996 | 13 | -55.8 | |||
| 2025-12-04T00:43 | 29297 | 12 | -55.2 | 160 | 7 | |
| 2025-12-04T00:44 | 29634 | 12 | -54.4 | 175 | 12 | |
| 2025-12-04T11:30 | 9 | 1015 | 25.8 | 24.4 | 160 | 2 |
| 2025-12-04T11:30 | 12 | 1015 | 26.0 | 24.4 | 133 | 1 |
| 2025-12-04T11:30 | 57 | 1010 | 26.4 | 23.9 | ||
| 2025-12-04T11:30 | 92 | 1006 | 138 | 4 | ||
| 2025-12-04T11:31 | 257 | 987 | 156 | 4 | ||
| 2025-12-04T11:31 | 382 | 973 | 23.5 | 22.5 | ||
| 2025-12-04T11:32 | 535 | 956 | 186 | 4 | ||
| 2025-12-04T11:32 | 640 | 945 | 21.6 | 20.4 | ||
| 2025-12-04T11:32 | 768 | 931 | 21.1 | 18.5 | ||
| 2025-12-04T11:33 | 869 | 920 | 210 | 6 | ||
| 2025-12-04T11:33 | 1053 | 901 | 215 | 5 | ||
| 2025-12-04T11:34 | 1159 | 890 | 18.5 | 16.1 | ||
| 2025-12-04T11:34 | 1185 | 887 | 209 | 5 | ||
| 2025-12-04T11:34 | 1292 | 876 | 18.2 | 14.1 | ||
| 2025-12-04T11:34 | 1389 | 866 | 223 | 3 | ||
| 2025-12-04T11:35 | 1501 | 855 | 16.8 | 13.9 | ||
| 2025-12-04T11:35 | 1679 | 838 | 15.5 | 12.3 | ||
| 2025-12-04T11:35 | 1723 | 833 | 231 | 3 | ||
| 2025-12-04T11:35 | 1734 | 832 | 15.2 | 12.7 | ||
| 2025-12-04T11:35 | 1767 | 829 | 15.1 | 12.4 | ||
| 2025-12-04T11:36 | 1816 | 824 | 15.8 | 7.8 | ||
| 2025-12-04T11:36 | 1867 | 819 | 240 | 1 | ||
| 2025-12-04T11:36 | 2017 | 805 | 15.7 | 3.5 | ||
| 2025-12-04T11:37 | 2219 | 786 | 220 | 2 | ||
| 2025-12-04T11:37 | 2242 | 784 | 14.4 | 7.2 | ||
| 2025-12-04T11:37 | 2313 | 777 | 13.7 | 8.7 | ||
| 2025-12-04T11:37 | 2377 | 771 | 13.5 | 8.1 | ||
| 2025-12-04T11:37 | 2430 | 766 | 13.3 | 7.1 | ||
| 2025-12-04T11:37 | 2472 | 763 | 13.1 | 7.5 | ||
| 2025-12-04T11:38 | 2571 | 754 | 267 | 4 | ||
| 2025-12-04T11:38 | 2583 | 753 | 12.5 | 8.0 | ||
| 2025-12-04T11:38 | 2694 | 743 | 12.6 | 2.2 | ||
| 2025-12-04T11:38 | 2799 | 733 | 11.9 | 3.1 | ||
| 2025-12-04T11:39 | 2886 | 726 | 11.7 | -1.8 | ||
| 2025-12-04T11:39 | 2920 | 723 | 240 | 6 | ||
| 2025-12-04T11:39 | 3086 | 709 | 10.8 | -2.6 | ||
| 2025-12-04T11:39 | 3167 | 702 | 10.3 | -1.1 | ||
| 2025-12-04T11:40 | 3231 | 696 | 10.7 | -6.6 | ||
| 2025-12-04T11:40 | 3266 | 693 | 241 | 10 | ||
| 2025-12-04T11:40 | 3366 | 685 | 10.1 | -13.2 | ||
| 2025-12-04T11:41 | 3615 | 665 | 256 | 9 | ||
| 2025-12-04T11:41 | 3626 | 664 | 8.8 | -31.3 | ||
| 2025-12-04T11:41 | 3777 | 652 | 8.1 | -21.8 | ||
| 2025-12-04T11:41 | 3853 | 646 | 7.6 | -19.1 | ||
| 2025-12-04T11:42 | 3964 | 637 | 256 | 10 | ||
| 2025-12-04T11:42 | 4033 | 632 | 6.6 | -19.9 | ||
| 2025-12-04T11:43 | 4253 | 615 | 5.0 | -17.4 | ||
| 2025-12-04T11:43 | 4304 | 611 | 258 | 12 | ||
| 2025-12-04T11:43 | 4422 | 602 | 3.9 | -19.7 | ||
| 2025-12-04T11:44 | 4590 | 590 | 2.7 | -18.1 | ||
| 2025-12-04T11:44 | 4649 | 586 | 251 | 12 | ||
| 2025-12-04T11:44 | 4769 | 577 | 1.4 | -12.1 | ||
| 2025-12-04T11:44 | 4805 | 575 | 1.3 | -18.1 | ||
| 2025-12-04T11:44 | 4842 | 572 | 1.2 | -26.1 | ||
| 2025-12-04T11:45 | 5010 | 560 | 259 | 11 | ||
| 2025-12-04T11:45 | 5015 | 560 | 0.7 | -31.3 | ||
| 2025-12-04T11:45 | 5085 | 555 | 0.3 | -25.0 | ||
| 2025-12-04T11:45 | 5142 | 551 | -0.1 | -19.3 | ||
| 2025-12-04T11:45 | 5219 | 546 | 262 | 10 | ||
| 2025-12-04T11:45 | 5241 | 544 | -0.9 | -11.6 | ||
| 2025-12-04T11:46 | 5341 | 537 | -1.5 | -15.3 | ||
| 2025-12-04T11:46 | 5463 | 529 | -2.2 | -17.1 | ||
| 2025-12-04T11:46 | 5496 | 527 | 253 | 11 | ||
| 2025-12-04T11:46 | 5512 | 526 | -2.6 | -15.3 | ||
| 2025-12-04T11:46 | 5555 | 523 | -3.1 | -10.0 | ||
| 2025-12-04T11:47 | 5620 | 519 | -3.5 | -10.1 | ||
| 2025-12-04T11:47 | 5652 | 517 | -3.6 | -12.5 | ||
| 2025-12-04T11:47 | 5694 | 514 | -3.9 | -10.3 | ||
| 2025-12-04T11:47 | 5795 | 507 | -4.3 | -11.8 | ||
| 2025-12-04T11:47 | 5817 | 506 | 248 | 8 | ||
| 2025-12-04T11:48 | 5997 | 494 | -5.5 | -10.7 | ||
| 2025-12-04T11:48 | 6054 | 491 | 261 | 9 | ||
| 2025-12-04T11:48 | 6082 | 489 | -6.1 | -10.3 | ||
| 2025-12-04T11:48 | 6188 | 483 | -6.7 | -12.2 | ||
| 2025-12-04T11:49 | 6396 | 470 | 254 | 8 | ||
| 2025-12-04T11:49 | 6402 | 470 | -8.0 | -12.2 | ||
| 2025-12-04T11:50 | 6754 | 449 | 255 | 9 | ||
| 2025-12-04T11:50 | 6783 | 447 | -10.5 | -14.6 | ||
| 2025-12-04T11:51 | 7120 | 428 | -13.1 | -15.2 | 255 | 10 |
| 2025-12-04T11:51 | 7223 | 422 | -13.8 | -16.7 | ||
| 2025-12-04T11:51 | 7304 | 418 | -14.0 | -18.1 | ||
| 2025-12-04T11:52 | 7370 | 414 | 270 | 12 | ||
| 2025-12-04T11:52 | 7483 | 408 | -15.3 | -19.2 | ||
| 2025-12-04T11:52 | 7539 | 405 | -15.6 | -19.8 | ||
| 2025-12-04T11:52 | 7645 | 399 | -16.1 | -21.2 | ||
| 2025-12-04T11:53 | 7736 | 394 | 257 | 14 | ||
| 2025-12-04T11:53 | 7761 | 393 | -17.0 | -21.2 | ||
| 2025-12-04T11:53 | 7823 | 390 | -17.4 | -22.4 | ||
| 2025-12-04T11:53 | 7939 | 384 | -18.3 | -22.8 | ||
| 2025-12-04T11:54 | 8092 | 376 | -19.1 | -25.3 | ||
| 2025-12-04T11:54 | 8104 | 375 | 248 | 14 | ||
| 2025-12-04T11:54 | 8263 | 367 | -20.1 | -27.0 | ||
| 2025-12-04T11:55 | 8471 | 357 | -21.3 | -28.2 | ||
| 2025-12-04T11:55 | 8484 | 357 | 227 | 13 | ||
| 2025-12-04T11:55 | 8795 | 342 | 235 | 13 | ||
| 2025-12-04T11:55 | 8814 | 341 | -24.0 | -30.3 | ||
| 2025-12-04T11:56 | 8967 | 334 | -25.1 | -32.7 | ||
| 2025-12-04T11:56 | 8986 | 333 | 239 | 11 | ||
| 2025-12-04T11:56 | 9095 | 328 | -25.6 | -44.7 | ||
| 2025-12-04T11:57 | 9308 | 318 | 277 | 10 | ||
| 2025-12-04T11:57 | 9347 | 317 | -27.5 | -55.7 | ||
| 2025-12-04T11:58 | 9695 | 302 | 258 | 10 | ||
| 2025-12-04T11:58 | 9751 | 299 | -31.3 | -46.9 | ||
| 2025-12-04T11:58 | 9895 | 293 | -32.7 | -47.7 | ||
| 2025-12-04T11:58 | 9952 | 291 | -33.0 | -39.0 | ||
| 2025-12-04T11:59 | 10017 | 288 | 262 | 10 | ||
| 2025-12-04T11:59 | 10029 | 288 | -33.7 | -41.1 | ||
| 2025-12-04T11:59 | 10106 | 284 | -34.2 | -46.1 | ||
| 2025-12-04T11:59 | 10145 | 283 | -34.5 | -52.1 | ||
| 2025-12-04T11:59 | 10223 | 280 | 260 | 13 | ||
| 2025-12-04T11:59 | 10263 | 278 | -35.3 | -45.6 | ||
| 2025-12-04T11:59 | 10343 | 275 | -36.1 | -44.2 | ||
| 2025-12-04T12:00 | 10498 | 269 | -37.5 | -42.7 | ||
| 2025-12-04T12:00 | 10543 | 267 | 261 | 14 | ||
| 2025-12-04T12:00 | 10588 | 265 | -37.7 | -48.1 | ||
| 2025-12-04T12:01 | 10915 | 253 | -40.0 | -53.6 | ||
| 2025-12-04T12:01 | 10928 | 253 | 262 | 17 | ||
| 2025-12-04T12:02 | 11308 | 239 | 271 | 19 | ||
| 2025-12-04T12:03 | 11673 | 226 | 283 | 20 | ||
| 2025-12-04T12:04 | 12064 | 213 | 291 | 22 | ||
| 2025-12-04T12:05 | 12454 | 201 | 295 | 23 | ||
| 2025-12-04T12:05 | 12611 | 196 | -54.3 | |||
| 2025-12-04T12:06 | 12846 | 189 | 298 | 25 | ||
| 2025-12-04T12:07 | 13254 | 177 | 301 | 27 | ||
| 2025-12-04T12:07 | 13426 | 172 | -60.8 | |||
| 2025-12-04T12:08 | 13706 | 164 | 307 | 33 | ||
| 2025-12-04T12:09 | 14134 | 153 | 305 | 32 | ||
| 2025-12-04T12:09 | 14295 | 149 | -66.4 | |||
| 2025-12-04T12:10 | 14608 | 142 | 292 | 20 | ||
| 2025-12-04T12:10 | 14730 | 139 | -68.0 | |||
| 2025-12-04T12:11 | 15078 | 131 | 279 | 21 | ||
| 2025-12-04T12:12 | 15519 | 122 | 276 | 23 | ||
| 2025-12-04T12:13 | 15845 | 115 | -76.6 | |||
| 2025-12-04T12:13 | 15967 | 113 | 289 | 23 | ||
| 2025-12-04T12:14 | 16251 | 107 | -78.5 | |||
| 2025-12-04T12:14 | 16388 | 105 | 292 | 16 | ||
| 2025-12-04T12:15 | 16664 | 100 | -80.1 | |||
| 2025-12-04T12:15 | 16731 | 98 | 260 | 13 | ||
| 2025-12-04T12:16 | 17121 | 92 | -81.6 | |||
| 2025-12-04T12:16 | 17142 | 91 | 258 | 13 | ||
| 2025-12-04T12:16 | 17359 | 88 | -81.8 | |||
| 2025-12-04T12:17 | 17551 | 85 | 278 | 15 | ||
| 2025-12-04T12:17 | 17586 | 85 | -81.2 | |||
| 2025-12-04T12:17 | 17779 | 82 | 290 | 14 | ||
| 2025-12-04T12:18 | 17950 | 79 | 258 | 7 | ||
| 2025-12-04T12:18 | 18052 | 78 | -81.0 | |||
| 2025-12-04T12:18 | 18089 | 77 | 232 | 11 | ||
| 2025-12-04T12:19 | 18434 | 73 | -81.4 | |||
| 2025-12-04T12:19 | 18450 | 72 | 286 | 11 | ||
| 2025-12-04T12:19 | 18638 | 70 | 321 | 9 | ||
| 2025-12-04T12:20 | 18657 | 70 | -78.8 | |||
| 2025-12-04T12:20 | 18788 | 68 | -78.3 | |||
| 2025-12-04T12:20 | 19019 | 66 | -76.1 | |||
| 2025-12-04T12:20 | 19039 | 65 | 323 | 8 | ||
| 2025-12-04T12:21 | 19171 | 64 | -75.0 | |||
| 2025-12-04T12:22 | 19441 | 61 | 325 | 7 | ||
| 2025-12-04T12:22 | 19597 | 59 | 334 | 4 | ||
| 2025-12-04T12:22 | 19635 | 59 | 13 | 2 | ||
| 2025-12-04T12:22 | 19644 | 59 | -74.4 | |||
| 2025-12-04T12:22 | 19675 | 59 | 91 | 3 | ||
| 2025-12-04T12:22 | 19763 | 58 | -73.9 | |||
| 2025-12-04T12:23 | 19878 | 57 | -72.3 | |||
| 2025-12-04T12:23 | 20025 | 55 | 124 | 10 | ||
| 2025-12-04T12:23 | 20164 | 54 | -72.6 | |||
| 2025-12-04T12:24 | 20287 | 53 | 142 | 6 | ||
| 2025-12-04T12:24 | 20550 | 50 | 82 | 4 | ||
| 2025-12-04T12:25 | 20755 | 49 | -67.8 | |||
| 2025-12-04T12:25 | 20783 | 49 | 94 | 13 | ||
| 2025-12-04T12:26 | 21103 | 46 | 110 | 12 | ||
| 2025-12-04T12:26 | 21299 | 45 | 91 | 8 | ||
| 2025-12-04T12:27 | 21563 | 43 | -65.1 | |||
| 2025-12-04T12:27 | 21729 | 42 | 95 | 9 | ||
| 2025-12-04T12:28 | 22029 | 40 | -62.9 | |||
| 2025-12-04T12:28 | 22157 | 39 | 110 | 8 | ||
| 2025-12-04T12:29 | 22400 | 37 | 121 | 8 | ||
| 2025-12-04T12:30 | 22739 | 35 | 143 | 5 | ||
| 2025-12-04T12:30 | 22917 | 34 | 105 | 3 | ||
| 2025-12-04T12:30 | 22993 | 34 | -60.5 | |||
| 2025-12-04T12:30 | 23084 | 33 | 135 | 5 | ||
| 2025-12-04T12:31 | 23353 | 32 | 133 | 4 | ||
| 2025-12-04T12:31 | 23513 | 31 | 137 | 2 | ||
| 2025-12-04T12:32 | 23651 | 30 | 99 | 4 | ||
| 2025-12-04T12:32 | 23755 | 30 | 117 | 3 | ||
| 2025-12-04T12:33 | 24033 | 29 | -60.6 | |||
| 2025-12-04T12:33 | 24054 | 29 | 178 | 3 | ||
| 2025-12-04T12:33 | 24190 | 28 | 149 | 5 | ||
| 2025-12-04T12:33 | 24392 | 27 | 160 | 3 | ||
| 2025-12-04T12:34 | 24439 | 27 | -58.3 | |||
| 2025-12-04T12:34 | 24508 | 27 | 244 | 3 | ||
| 2025-12-04T12:34 | 24700 | 26 | 306 | 2 | ||
| 2025-12-04T12:34 | 24777 | 25 | 335 | 3 | ||
| 2025-12-04T12:35 | 25058 | 24 | 338 | 5 | ||
| 2025-12-04T12:35 | 25243 | 24 | -56.1 | 321 | 5 | |
| 2025-12-04T12:36 | 25515 | 23 | 303 | 2 | ||
| 2025-12-04T12:36 | 25605 | 22 | -55.7 | |||
| 2025-12-04T12:36 | 25687 | 22 | 277 | 3 | ||
| 2025-12-04T12:37 | 25805 | 22 | 254 | 1 | ||
| 2025-12-04T12:38 | 26203 | 20 | 165 | 3 | ||
| 2025-12-04T12:38 | 26395 | 20 | 176 | 1 | ||
| 2025-12-04T12:38 | 26494 | 19 | -51.8 | 354 | 3 | |
| 2025-12-04T12:39 | 26662 | 19 | 17 | 2 | ||
| 2025-12-04T12:39 | 26840 | 18 | 56 | 3 | ||
| 2025-12-04T12:39 | 26982 | 18 | 11 | 6 | ||
| 2025-12-04T12:40 | 27196 | 17 | 7 | 5 | ||
| 2025-12-04T12:40 | 27384 | 17 | 3 | 2 | ||
| 2025-12-04T12:41 | 27699 | 16 | 16 | 3 | ||
| 2025-12-04T12:41 | 27777 | 16 | -53.6 | |||
| 2025-12-04T12:41 | 27982 | 15 | 81 | 4 | ||
| 2025-12-04T12:42 | 28154 | 15 | 118 | 3 | ||
| 2025-12-04T12:43 | 28497 | 14 | -54.8 | |||
| 2025-12-04T12:43 | 28543 | 14 | 142 | 6 | ||
| 2025-12-04T12:43 | 28818 | 14 | 156 | 6 | ||
| 2025-12-04T12:44 | 29110 | 13 | 170 | 7 | ||
| 2025-12-04T12:45 | 29571 | 12 | 159 | 5 | ||
| 2025-12-04T12:45 | 29630 | 12 | -56.5 | 161 | 6 | |
| 2025-12-04T23:30 | 9 | 1016 | 28.0 | 24.4 | 170 | 3 |
| 2025-12-04T23:30 | 11 | 1016 | 27.9 | 24.3 | 0 | 0 |
| 2025-12-04T23:30 | 41 | 1012 | 174 | 3 | ||
| 2025-12-04T23:30 | 78 | 1008 | 26.4 | 22.7 | ||
| 2025-12-04T23:31 | 282 | 985 | 168 | 4 | ||
| 2025-12-04T23:31 | 364 | 976 | 23.9 | 21.2 | ||
| 2025-12-04T23:32 | 609 | 949 | 22.6 | 18.4 | ||
| 2025-12-04T23:32 | 639 | 946 | 164 | 3 | ||
| 2025-12-04T23:33 | 985 | 909 | 20.0 | 16.1 | ||
| 2025-12-04T23:33 | 996 | 908 | 176 | 4 | ||
| 2025-12-04T23:34 | 1337 | 872 | 155 | 7 | ||
| 2025-12-04T23:34 | 1467 | 859 | 17.0 | 14.5 | ||
| 2025-12-04T23:34 | 1485 | 858 | 142 | 8 | ||
| 2025-12-04T23:35 | 1752 | 831 | 14.7 | 13.9 | ||
| 2025-12-04T23:35 | 1849 | 822 | 168 | 8 | ||
| 2025-12-04T23:35 | 1855 | 821 | 15.4 | 11.8 | ||
| 2025-12-04T23:36 | 2025 | 805 | 15.5 | 8.7 | ||
| 2025-12-04T23:36 | 2086 | 799 | 15.7 | 5.9 | ||
| 2025-12-04T23:36 | 2213 | 787 | 193 | 7 | ||
| 2025-12-04T23:36 | 2219 | 787 | 15.4 | 3.2 | ||
| 2025-12-04T23:37 | 2299 | 779 | 15.8 | -5.9 | ||
| 2025-12-04T23:37 | 2403 | 770 | 16.0 | -14.5 | ||
| 2025-12-04T23:37 | 2495 | 761 | 15.1 | -0.6 | ||
| 2025-12-04T23:37 | 2581 | 754 | 253 | 7 | ||
| 2025-12-04T23:38 | 2679 | 745 | 13.7 | -0.4 | ||
| 2025-12-04T23:38 | 2715 | 742 | 13.5 | -0.5 | ||
| 2025-12-04T23:38 | 2758 | 738 | 13.4 | -5.2 | ||
| 2025-12-04T23:38 | 2782 | 736 | 13.2 | -1.9 | ||
| 2025-12-04T23:38 | 2823 | 732 | 12.8 | 6.6 | ||
| 2025-12-04T23:38 | 2931 | 723 | 12.1 | 5.5 | ||
| 2025-12-04T23:38 | 2943 | 722 | 263 | 9 | ||
| 2025-12-04T23:39 | 3153 | 704 | 11.2 | -1.2 | ||
| 2025-12-04T23:39 | 3288 | 693 | 9.8 | 4.6 | ||
| 2025-12-04T23:39 | 3306 | 691 | 265 | 10 | ||
| 2025-12-04T23:40 | 3439 | 680 | 8.9 | 2.5 | ||
| 2025-12-04T23:40 | 3587 | 668 | 7.9 | -1.4 | ||
| 2025-12-04T23:40 | 3664 | 662 | 253 | 10 | ||
| 2025-12-04T23:40 | 3682 | 660 | 7.4 | -4.7 | ||
| 2025-12-04T23:41 | 3758 | 654 | 6.6 | -1.1 | ||
| 2025-12-04T23:41 | 3848 | 647 | 6.4 | -8.7 | ||
| 2025-12-04T23:41 | 3913 | 642 | 6.0 | -7.6 | ||
| 2025-12-04T23:41 | 4021 | 634 | 5.0 | -5.1 | 245 | 10 |
| 2025-12-04T23:41 | 4063 | 630 | 4.5 | -1.7 | ||
| 2025-12-04T23:42 | 4136 | 625 | 4.3 | -8.4 | ||
| 2025-12-04T23:42 | 4307 | 612 | 3.2 | -12.7 | ||
| 2025-12-04T23:42 | 4386 | 606 | 246 | 9 | ||
| 2025-12-04T23:43 | 4482 | 599 | 2.1 | -21.9 | ||
| 2025-12-04T23:43 | 4743 | 580 | 236 | 10 | ||
| 2025-12-04T23:44 | 4916 | 567 | -1.0 | -19.1 | ||
| 2025-12-04T23:44 | 4969 | 563 | -1.7 | -9.8 | ||
| 2025-12-04T23:44 | 5005 | 561 | -2.1 | -7.8 | ||
| 2025-12-04T23:44 | 5029 | 559 | -1.8 | -10.9 | ||
| 2025-12-04T23:44 | 5053 | 557 | -1.4 | -18.5 | ||
| 2025-12-04T23:44 | 5077 | 556 | -1.3 | -17.9 | ||
| 2025-12-04T23:44 | 5101 | 554 | 251 | 9 | ||
| 2025-12-04T23:44 | 5125 | 552 | -1.8 | -10.9 | ||
| 2025-12-04T23:45 | 5262 | 543 | -2.9 | -13.5 | ||
| 2025-12-04T23:45 | 5345 | 537 | -3.3 | -15.6 | ||
| 2025-12-04T23:45 | 5415 | 533 | -3.4 | -24.4 | ||
| 2025-12-04T23:45 | 5457 | 530 | 242 | 8 | ||
| 2025-12-04T23:46 | 5636 | 518 | -4.4 | -29.6 | ||
| 2025-12-04T23:46 | 5801 | 507 | -5.0 | -39.0 | ||
| 2025-12-04T23:46 | 5820 | 506 | 236 | 11 | ||
| 2025-12-04T23:47 | 5950 | 498 | -6.1 | -33.9 | ||
| 2025-12-04T23:47 | 5993 | 495 | -6.4 | -30.4 | ||
| 2025-12-04T23:47 | 6047 | 491 | -6.9 | -30.8 | ||
| 2025-12-04T23:47 | 6096 | 488 | -7.4 | -25.0 | ||
| 2025-12-04T23:47 | 6162 | 484 | -7.7 | -31.4 | ||
| 2025-12-04T23:47 | 6186 | 483 | 233 | 11 | ||
| 2025-12-04T23:48 | 6250 | 479 | -8.1 | -24.7 | ||
| 2025-12-04T23:48 | 6337 | 473 | -8.5 | -23.0 | ||
| 2025-12-04T23:48 | 6378 | 471 | -8.8 | -17.6 | ||
| 2025-12-04T23:48 | 6419 | 468 | 239 | 9 | ||
| 2025-12-04T23:48 | 6436 | 467 | -8.9 | -21.6 | ||
| 2025-12-04T23:48 | 6560 | 460 | -9.7 | -16.0 | ||
| 2025-12-04T23:49 | 6612 | 457 | -9.6 | -18.1 | ||
| 2025-12-04T23:49 | 6773 | 447 | 263 | 12 | ||
| 2025-12-04T23:49 | 6900 | 440 | -11.4 | -18.0 | ||
| 2025-12-04T23:50 | 7139 | 427 | 272 | 11 | ||
| 2025-12-04T23:50 | 7266 | 419 | -14.4 | -18.8 | ||
| 2025-12-04T23:51 | 7371 | 414 | -15.2 | -19.1 | ||
| 2025-12-04T23:51 | 7496 | 407 | 272 | 13 | ||
| 2025-12-04T23:51 | 7519 | 406 | -16.2 | -19.3 | ||
| 2025-12-04T23:51 | 7638 | 399 | -16.7 | -20.9 | ||
| 2025-12-04T23:52 | 7852 | 388 | 247 | 14 | ||
| 2025-12-04T23:52 | 8002 | 380 | -18.7 | -26.1 | ||
| 2025-12-04T23:53 | 8210 | 370 | 252 | 14 | ||
| 2025-12-04T23:53 | 8381 | 361 | -22.0 | -26.6 | ||
| 2025-12-04T23:54 | 8464 | 357 | -21.9 | -30.9 | ||
| 2025-12-04T23:54 | 8563 | 352 | 249 | 12 | ||
| 2025-12-04T23:55 | 8771 | 343 | 266 | 11 | ||
| 2025-12-04T23:55 | 8858 | 338 | -24.7 | -34.4 | ||
| 2025-12-04T23:55 | 8945 | 334 | -25.4 | -35.9 | ||
| 2025-12-04T23:55 | 9007 | 332 | 253 | 11 | ||
| 2025-12-04T23:56 | 9121 | 326 | -26.6 | -41.2 | ||
| 2025-12-04T23:56 | 9176 | 324 | 259 | 14 | ||
| 2025-12-04T23:56 | 9377 | 315 | -28.8 | -44.3 | ||
| 2025-12-04T23:56 | 9471 | 311 | -29.7 | -41.8 | ||
| 2025-12-04T23:57 | 9553 | 307 | 264 | 15 | ||
| 2025-12-04T23:57 | 9603 | 305 | -30.6 | -37.5 | ||
| 2025-12-04T23:57 | 9795 | 297 | -31.7 | -40.8 | ||
| 2025-12-04T23:57 | 9820 | 296 | 261 | 20 | ||
| 2025-12-04T23:58 | 9986 | 289 | -33.2 | -42.0 | ||
| 2025-12-04T23:58 | 10200 | 280 | 260 | 21 | ||
| 2025-12-04T23:59 | 10256 | 278 | -35.7 | -43.0 | ||
| 2025-12-04T23:59 | 10548 | 267 | -37.9 | -45.1 | ||
| 2025-12-04T23:59 | 10581 | 265 | 259 | 20 | ||
| 2025-12-05T00:00 | 10803 | 257 | -39.7 | -45.8 | ||
| 2025-12-05T00:00 | 10893 | 253 | -40.0 | -47.6 | ||
| 2025-12-05T00:00 | 10969 | 251 | 279 | 21 | ||
| 2025-12-05T00:01 | 11357 | 237 | 272 | 21 | ||
| 2025-12-05T00:02 | 11743 | 223 | 278 | 23 | ||
| 2025-12-05T00:03 | 12127 | 211 | 277 | 24 | ||
| 2025-12-05T00:04 | 12303 | 205 | -52.2 | |||
| 2025-12-05T00:04 | 12540 | 198 | 287 | 26 | ||
| 2025-12-05T00:05 | 12936 | 186 | 296 | 30 | ||
| 2025-12-05T00:06 | 13377 | 173 | 298 | 32 | ||
| 2025-12-05T00:07 | 13525 | 169 | -61.8 | |||
| 2025-12-05T00:07 | 13640 | 166 | 304 | 35 | ||
| 2025-12-05T00:08 | 14065 | 155 | 306 | 37 | ||
| 2025-12-05T00:09 | 14543 | 143 | 313 | 34 | ||
| 2025-12-05T00:09 | 14567 | 142 | -68.7 | |||
| 2025-12-05T00:09 | 14732 | 139 | -69.3 | |||
| 2025-12-05T00:10 | 14942 | 134 | 311 | 22 | ||
| 2025-12-05T00:10 | 14949 | 134 | -70.3 | |||
| 2025-12-05T00:10 | 15096 | 130 | -70.3 | |||
| 2025-12-05T00:11 | 15274 | 126 | 289 | 11 | ||
| 2025-12-05T00:11 | 15464 | 122 | 266 | 12 | ||
| 2025-12-05T00:12 | 15893 | 114 | 266 | 14 | ||
| 2025-12-05T00:13 | 16356 | 105 | 280 | 15 | ||
| 2025-12-05T00:13 | 16445 | 103 | -80.9 | |||
| 2025-12-05T00:13 | 16587 | 101 | -80.1 | |||
| 2025-12-05T00:14 | 16712 | 98 | 264 | 11 | ||
| 2025-12-05T00:14 | 16987 | 94 | 288 | 14 | ||
| 2025-12-05T00:15 | 17153 | 91 | -81.8 | |||
| 2025-12-05T00:15 | 17401 | 87 | 289 | 9 | ||
| 2025-12-05T00:16 | 17683 | 83 | 329 | 8 | ||
| 2025-12-05T00:16 | 17900 | 80 | -81.0 | |||
| 2025-12-05T00:16 | 17917 | 79 | 308 | 2 | ||
| 2025-12-05T00:17 | 18078 | 77 | 252 | 4 | ||
| 2025-12-05T00:17 | 18187 | 76 | -83.0 | |||
| 2025-12-05T00:17 | 18297 | 74 | 273 | 6 | ||
| 2025-12-05T00:18 | 18488 | 72 | 14 | 2 | ||
| 2025-12-05T00:18 | 18567 | 71 | -80.2 | |||
| 2025-12-05T00:18 | 18614 | 70 | 115 | 3 | ||
| 2025-12-05T00:18 | 18778 | 68 | 155 | 6 | ||
| 2025-12-05T00:18 | 18846 | 67 | -79.6 | |||
| 2025-12-05T00:19 | 18956 | 66 | 195 | 3 | ||
| 2025-12-05T00:19 | 19006 | 65 | -78.5 | |||
| 2025-12-05T00:19 | 19113 | 64 | -75.8 | |||
| 2025-12-05T00:19 | 19168 | 64 | 172 | 9 | ||
| 2025-12-05T00:20 | 19354 | 62 | -76.1 | |||
| 2025-12-05T00:20 | 19533 | 60 | 216 | 6 | ||
| 2025-12-05T00:21 | 19659 | 58 | 211 | 3 | ||
| 2025-12-05T00:21 | 19689 | 58 | -73.9 | |||
| 2025-12-05T00:21 | 19774 | 57 | 201 | 2 | ||
| 2025-12-05T00:21 | 19884 | 56 | -70.9 | |||
| 2025-12-05T00:22 | 20079 | 54 | 62 | 3 | ||
| 2025-12-05T00:23 | 20400 | 52 | 128 | 6 | ||
| 2025-12-05T00:23 | 20493 | 51 | -70.2 | |||
| 2025-12-05T00:24 | 20772 | 48 | 151 | 6 | ||
| 2025-12-05T00:24 | 20966 | 47 | 117 | 5 | ||
| 2025-12-05T00:24 | 21027 | 46 | -67.3 | |||
| 2025-12-05T00:25 | 21284 | 45 | 99 | 9 | ||
| 2025-12-05T00:25 | 21477 | 43 | 119 | 8 | ||
| 2025-12-05T00:26 | 21883 | 40 | 119 | 6 | ||
| 2025-12-05T00:27 | 22039 | 39 | -66.2 | |||
| 2025-12-05T00:27 | 22160 | 39 | 131 | 1 | ||
| 2025-12-05T00:27 | 22270 | 38 | 3 | 3 | ||
| 2025-12-05T00:28 | 22499 | 36 | 40 | 5 | ||
| 2025-12-05T00:29 | 22847 | 34 | 59 | 8 | ||
| 2025-12-05T00:30 | 23230 | 32 | 102 | 6 | ||
| 2025-12-05T00:30 | 23483 | 31 | 79 | 6 | ||
| 2025-12-05T00:30 | 23561 | 31 | -62.4 | |||
| 2025-12-05T00:31 | 23707 | 30 | -60.3 | |||
| 2025-12-05T00:31 | 23939 | 29 | 88 | 10 | ||
| 2025-12-05T00:32 | 24248 | 27 | 90 | 8 | ||
| 2025-12-05T00:32 | 24453 | 27 | -60.9 | 56 | 3 | |
| 2025-12-05T00:33 | 24644 | 26 | 113 | 6 | ||
| 2025-12-05T00:33 | 24844 | 25 | -57.6 | |||
| 2025-12-05T00:33 | 24871 | 25 | 136 | 7 | ||
| 2025-12-05T00:34 | 25052 | 24 | -54.3 | |||
| 2025-12-05T00:34 | 25299 | 23 | 124 | 8 | ||
| 2025-12-05T00:35 | 25608 | 22 | 123 | 7 | ||
| 2025-12-05T00:35 | 25726 | 22 | -53.7 | |||
| 2025-12-05T00:36 | 26001 | 21 | 114 | 6 | ||
| 2025-12-05T00:37 | 26411 | 20 | 108 | 6 | ||
| 2025-12-05T00:37 | 26612 | 19 | -53.0 | 127 | 9 | |
| 2025-12-05T00:38 | 26823 | 18 | 136 | 9 | ||
| 2025-12-05T00:38 | 27000 | 18 | 136 | 14 | ||
| 2025-12-05T00:38 | 27224 | 17 | 129 | 9 | ||
| 2025-12-05T00:39 | 27413 | 17 | -52.2 | |||
| 2025-12-05T00:39 | 27613 | 16 | 135 | 9 | ||
| 2025-12-05T00:40 | 27981 | 15 | 145 | 12 | ||
| 2025-12-05T00:41 | 28285 | 15 | -51.5 | |||
| 2025-12-05T00:41 | 28467 | 14 | 158 | 11 | ||
| 2025-12-05T00:42 | 28887 | 13 | 175 | 14 | ||
| 2025-12-05T00:43 | 29387 | 12 | 156 | 12 | ||
| 2025-12-05T00:43 | 29541 | 12 | -56.5 | |||
| 2025-12-05T00:44 | 29924 | 11 | 230 | 7 | ||
| 2025-12-05T00:44 | 30149 | 11 | 192 | 5 | ||
| 2025-12-05T00:45 | 30442 | 10 | 156 | 7 | ||
| 2025-12-05T00:45 | 30566 | 10 | -58.8 | |||
| 2025-12-05T00:46 | 30755 | 10 | 181 | 7 | ||
| 2025-12-05T00:46 | 30817 | 10 | -58.7 | |||
| 2025-12-05T00:47 | 31151 | 9 | -57.5 | 249 | 5 | |
| 2025-12-05T00:47 | 31288 | 9 | 281 | 3 | ||
| 2025-12-05T00:47 | 31357 | 9 | -54.0 | |||
| 2025-12-05T00:47 | 31573 | 9 | 171 | 3 | ||
| 2025-12-05T00:48 | 31875 | 8 | 193 | 4 | ||
| 2025-12-05T00:48 | 32033 | 8 | 222 | 6 | ||
| 2025-12-05T00:49 | 32196 | 8 | 208 | 6 | ||
| 2025-12-05T00:49 | 32423 | 8 | -50.1 | 237 | 9 | |
| 2025-12-05T11:30 | 9 | 1015 | 25.8 | 24.2 | 150 | 3 |
| 2025-12-05T11:30 | 12 | 1014 | 26.3 | 24.5 | 0 | 0 |
| 2025-12-05T11:30 | 41 | 1011 | 142 | 3 | ||
| 2025-12-05T11:30 | 95 | 1005 | 26.2 | 23.3 | ||
| 2025-12-05T11:30 | 126 | 1001 | 153 | 4 | ||
| 2025-12-05T11:31 | 277 | 984 | 24.9 | 21.4 | ||
| 2025-12-05T11:31 | 444 | 966 | 168 | 6 | ||
| 2025-12-05T11:32 | 510 | 959 | 23.8 | 19.3 | ||
| 2025-12-05T11:32 | 597 | 949 | 166 | 6 | ||
| 2025-12-05T11:33 | 928 | 914 | 170 | 7 | ||
| 2025-12-05T11:33 | 1101 | 895 | 19.5 | 16.7 | ||
| 2025-12-05T11:34 | 1181 | 887 | 19.4 | 14.7 | ||
| 2025-12-05T11:34 | 1273 | 878 | 163 | 4 | ||
| 2025-12-05T11:34 | 1290 | 876 | 18.6 | 14.9 | ||
| 2025-12-05T11:34 | 1330 | 872 | 18.4 | 14.3 | ||
| 2025-12-05T11:34 | 1411 | 864 | 18.7 | 11.0 | ||
| 2025-12-05T11:35 | 1507 | 854 | 18.0 | 13.3 | ||
| 2025-12-05T11:35 | 1594 | 845 | 18.1 | 12.5 | ||
| 2025-12-05T11:35 | 1632 | 841 | 197 | 5 | ||
| 2025-12-05T11:35 | 1669 | 838 | 18.8 | 8.5 | ||
| 2025-12-05T11:35 | 1738 | 831 | 18.8 | 9.0 | ||
| 2025-12-05T11:36 | 1877 | 818 | 18.6 | 2.0 | ||
| 2025-12-05T11:36 | 1901 | 816 | 233 | 4 | ||
| 2025-12-05T11:36 | 2022 | 804 | 18.1 | -8.9 | ||
| 2025-12-05T11:36 | 2085 | 798 | 17.7 | -3.7 | ||
| 2025-12-05T11:36 | 2131 | 794 | 287 | 2 | ||
| 2025-12-05T11:36 | 2179 | 789 | 16.8 | 1.7 | ||
| 2025-12-05T11:37 | 2220 | 786 | 16.3 | 5.9 | ||
| 2025-12-05T11:37 | 2292 | 779 | 16.1 | 2.1 | ||
| 2025-12-05T11:37 | 2316 | 777 | 235 | 3 | ||
| 2025-12-05T11:37 | 2377 | 771 | 15.7 | 4.4 | ||
| 2025-12-05T11:37 | 2431 | 766 | 15.1 | 6.1 | ||
| 2025-12-05T11:38 | 2567 | 754 | 271 | 5 | ||
| 2025-12-05T11:38 | 2753 | 738 | 12.1 | 9.5 | ||
| 2025-12-05T11:39 | 2916 | 723 | 277 | 8 | ||
| 2025-12-05T11:39 | 3007 | 715 | 10.8 | 7.7 | ||
| 2025-12-05T11:39 | 3115 | 706 | 254 | 4 | ||
| 2025-12-05T11:40 | 3267 | 694 | 269 | 4 | ||
| 2025-12-05T11:40 | 3394 | 683 | 245 | 5 | ||
| 2025-12-05T11:40 | 3513 | 673 | 7.6 | 5.1 | ||
| 2025-12-05T11:40 | 3542 | 671 | 246 | 5 | ||
| 2025-12-05T11:40 | 3571 | 669 | 7.6 | 2.1 | ||
| 2025-12-05T11:41 | 3676 | 660 | 230 | 5 | ||
| 2025-12-05T11:41 | 3682 | 660 | 6.9 | 1.4 | ||
| 2025-12-05T11:41 | 3739 | 655 | 6.8 | -0.2 | ||
| 2025-12-05T11:41 | 3873 | 645 | 5.9 | 0.4 | ||
| 2025-12-05T11:41 | 3907 | 642 | 5.7 | 2.3 | ||
| 2025-12-05T11:42 | 3956 | 638 | 5.7 | -0.6 | ||
| 2025-12-05T11:42 | 4011 | 634 | 239 | 8 | ||
| 2025-12-05T11:42 | 4120 | 625 | 4.8 | -2.5 | ||
| 2025-12-05T11:42 | 4254 | 615 | 3.7 | -2.7 | ||
| 2025-12-05T11:43 | 4337 | 609 | 234 | 9 | ||
| 2025-12-05T11:43 | 4365 | 607 | 2.7 | -0.6 | ||
| 2025-12-05T11:43 | 4509 | 596 | 2.3 | -1.7 | ||
| 2025-12-05T11:43 | 4571 | 592 | 230 | 11 | ||
| 2025-12-05T11:44 | 4616 | 588 | 1.7 | -1.4 | ||
| 2025-12-05T11:44 | 4766 | 578 | 0.6 | -4.4 | ||
| 2025-12-05T11:44 | 4812 | 574 | 0.1 | -2.0 | ||
| 2025-12-05T11:44 | 4917 | 567 | 217 | 12 | ||
| 2025-12-05T11:45 | 4970 | 563 | -1.0 | -3.4 | ||
| 2025-12-05T11:45 | 5040 | 558 | -1.4 | -4.7 | ||
| 2025-12-05T11:45 | 5087 | 555 | -1.6 | -6.0 | ||
| 2025-12-05T11:45 | 5151 | 550 | -1.8 | -7.3 | ||
| 2025-12-05T11:45 | 5237 | 544 | -2.1 | -12.2 | ||
| 2025-12-05T11:45 | 5266 | 542 | 217 | 13 | ||
| 2025-12-05T11:46 | 5300 | 540 | -2.6 | -9.3 | ||
| 2025-12-05T11:46 | 5364 | 536 | -3.2 | -7.3 | ||
| 2025-12-05T11:46 | 5555 | 523 | -4.2 | -7.6 | ||
| 2025-12-05T11:46 | 5621 | 518 | 233 | 14 | ||
| 2025-12-05T11:47 | 5657 | 516 | -4.6 | -7.0 | ||
| 2025-12-05T11:47 | 5766 | 509 | -4.3 | -8.2 | ||
| 2025-12-05T11:47 | 5796 | 507 | 236 | 15 | ||
| 2025-12-05T11:47 | 6012 | 493 | -5.9 | -8.5 | ||
| 2025-12-05T11:48 | 6113 | 487 | -6.2 | -9.9 | ||
| 2025-12-05T11:48 | 6171 | 483 | 230 | 13 | ||
| 2025-12-05T11:48 | 6253 | 478 | -6.9 | -11.3 | ||
| 2025-12-05T11:49 | 6546 | 461 | 235 | 14 | ||
| 2025-12-05T11:49 | 6640 | 455 | -10.2 | -13.0 | ||
| 2025-12-05T11:49 | 6702 | 452 | -10.4 | -16.9 | ||
| 2025-12-05T11:49 | 6745 | 449 | -10.5 | -19.4 | ||
| 2025-12-05T11:50 | 6800 | 446 | -11.2 | -15.6 | ||
| 2025-12-05T11:50 | 6884 | 441 | -11.8 | -14.2 | ||
| 2025-12-05T11:50 | 6914 | 439 | 237 | 15 | ||
| 2025-12-05T11:50 | 7062 | 431 | -12.8 | -15.1 | ||
| 2025-12-05T11:50 | 7115 | 428 | -12.9 | -17.1 | ||
| 2025-12-05T11:51 | 7163 | 425 | -13.2 | -17.0 | ||
| 2025-12-05T11:51 | 7270 | 419 | -13.6 | -19.5 | 239 | 14 |
| 2025-12-05T11:52 | 7622 | 400 | 244 | 15 | ||
| 2025-12-05T11:52 | 7640 | 399 | -16.2 | -25.2 | ||
| 2025-12-05T11:52 | 7750 | 394 | -16.7 | -26.6 | ||
| 2025-12-05T11:53 | 7874 | 387 | -17.6 | -26.0 | ||
| 2025-12-05T11:53 | 7940 | 384 | -18.0 | -27.3 | ||
| 2025-12-05T11:53 | 7976 | 382 | 244 | 14 | ||
| 2025-12-05T11:53 | 7994 | 381 | -18.6 | -25.4 | ||
| 2025-12-05T11:53 | 8121 | 375 | -19.5 | -30.0 | ||
| 2025-12-05T11:54 | 8222 | 369 | -20.4 | -27.3 | ||
| 2025-12-05T11:54 | 8307 | 365 | -21.0 | -28.9 | ||
| 2025-12-05T11:54 | 8337 | 364 | 249 | 16 | ||
| 2025-12-05T11:54 | 8392 | 361 | -21.7 | -29.6 | ||
| 2025-12-05T11:54 | 8435 | 359 | -22.0 | -30.3 | ||
| 2025-12-05T11:54 | 8508 | 355 | -22.5 | -27.5 | ||
| 2025-12-05T11:55 | 8695 | 346 | -24.1 | -29.7 | ||
| 2025-12-05T11:55 | 8701 | 346 | 255 | 16 | ||
| 2025-12-05T11:55 | 8738 | 344 | -24.2 | -30.5 | ||
| 2025-12-05T11:56 | 8932 | 335 | -25.9 | -27.5 | ||
| 2025-12-05T11:56 | 8951 | 334 | 261 | 18 | ||
| 2025-12-05T11:56 | 9158 | 325 | -26.5 | -30.6 | ||
| 2025-12-05T11:57 | 9330 | 317 | 276 | 19 | ||
| 2025-12-05T11:57 | 9396 | 314 | -28.6 | -32.4 | ||
| 2025-12-05T11:58 | 9726 | 300 | 274 | 19 | ||
| 2025-12-05T11:58 | 9834 | 296 | -32.3 | -37.1 | ||
| 2025-12-05T11:58 | 9951 | 291 | -33.4 | -37.1 | ||
| 2025-12-05T11:58 | 10020 | 288 | -34.1 | -38.6 | ||
| 2025-12-05T11:58 | 10104 | 285 | -34.8 | -42.8 | ||
| 2025-12-05T11:59 | 10139 | 283 | 273 | 18 | ||
| 2025-12-05T11:59 | 10189 | 281 | -35.5 | -46.1 | ||
| 2025-12-05T11:59 | 10259 | 278 | -36.0 | -45.5 | ||
| 2025-12-05T11:59 | 10302 | 277 | -36.3 | -44.6 | ||
| 2025-12-05T11:59 | 10360 | 274 | -36.4 | -40.3 | ||
| 2025-12-05T11:59 | 10448 | 271 | 269 | 21 | ||
| 2025-12-05T12:00 | 10560 | 266 | -37.5 | -42.9 | ||
| 2025-12-05T12:00 | 10667 | 262 | -38.1 | -45.1 | ||
| 2025-12-05T12:00 | 10885 | 254 | -39.5 | -48.0 | ||
| 2025-12-05T12:00 | 10900 | 254 | 271 | 20 | ||
| 2025-12-05T12:00 | 10966 | 251 | -40.0 | -49.6 | ||
| 2025-12-05T12:01 | 11316 | 238 | 284 | 24 | ||
| 2025-12-05T12:02 | 11709 | 225 | 290 | 28 | ||
| 2025-12-05T12:03 | 12086 | 212 | 291 | 31 | ||
| 2025-12-05T12:04 | 12473 | 200 | 297 | 28 | ||
| 2025-12-05T12:05 | 12830 | 189 | -55.0 | |||
| 2025-12-05T12:05 | 12836 | 189 | 296 | 33 | ||
| 2025-12-05T12:06 | 13228 | 178 | 299 | 30 | ||
| 2025-12-05T12:07 | 13377 | 174 | -59.2 | |||
| 2025-12-05T12:07 | 13638 | 167 | 304 | 29 | ||
| 2025-12-05T12:08 | 14040 | 156 | -64.6 | |||
| 2025-12-05T12:08 | 14070 | 155 | 310 | 34 | ||
| 2025-12-05T12:09 | 14552 | 143 | 309 | 33 | ||
| 2025-12-05T12:09 | 14654 | 141 | -68.8 | |||
| 2025-12-05T12:10 | 14909 | 135 | -68.8 | |||
| 2025-12-05T12:10 | 15073 | 131 | 300 | 21 | ||
| 2025-12-05T12:11 | 15563 | 121 | 271 | 13 | ||
| 2025-12-05T12:12 | 15779 | 117 | -75.5 | |||
| 2025-12-05T12:12 | 16053 | 111 | 267 | 13 | ||
| 2025-12-05T12:13 | 16209 | 108 | -78.8 | |||
| 2025-12-05T12:13 | 16496 | 103 | 293 | 16 | ||
| 2025-12-05T12:14 | 16719 | 99 | -79.8 | |||
| 2025-12-05T12:14 | 16800 | 97 | 275 | 13 | ||
| 2025-12-05T12:15 | 17068 | 93 | -79.9 | |||
| 2025-12-05T12:15 | 17166 | 91 | 288 | 12 | ||
| 2025-12-05T12:15 | 17221 | 90 | -80.4 | |||
| 2025-12-05T12:15 | 17363 | 88 | -80.0 | |||
| 2025-12-05T12:15 | 17384 | 88 | 304 | 10 | ||
| 2025-12-05T12:16 | 17776 | 82 | 297 | 7 | ||
| 2025-12-05T12:17 | 17936 | 80 | -83.7 | |||
| 2025-12-05T12:17 | 17950 | 79 | 301 | 4 | ||
| 2025-12-05T12:17 | 18052 | 78 | 223 | 4 | ||
| 2025-12-05T12:18 | 18243 | 75 | -84.3 | 233 | 8 | |
| 2025-12-05T12:18 | 18409 | 73 | -83.7 | |||
| 2025-12-05T12:18 | 18433 | 73 | 253 | 4 | ||
| 2025-12-05T12:18 | 18527 | 72 | -81.5 | |||
| 2025-12-05T12:18 | 18566 | 71 | 200 | 4 | ||
| 2025-12-05T12:19 | 18712 | 69 | -80.8 | |||
| 2025-12-05T12:19 | 18793 | 68 | 264 | 6 | ||
| 2025-12-05T12:19 | 18839 | 68 | -76.8 | 269 | 5 | |
| 2025-12-05T23:30 | 9 | 1016 | 28.6 | 24.0 | 160 | 4 |
| 2025-12-05T23:30 | 11 | 1015 | 28.4 | 23.8 | 0 | 0 |
| 2025-12-05T23:30 | 23 | 1014 | 27.3 | 22.5 | ||
| 2025-12-05T23:30 | 26 | 1014 | 180 | 3 | ||
| 2025-12-05T23:30 | 77 | 1008 | 160 | 6 | ||
| 2025-12-05T23:31 | 402 | 971 | 160 | 6 | ||
| 2025-12-05T23:31 | 415 | 970 | 23.6 | 19.7 | ||
| 2025-12-05T23:32 | 505 | 960 | 23.7 | 16.7 | ||
| 2025-12-05T23:32 | 684 | 940 | 22.7 | 16.7 | ||
| 2025-12-05T23:32 | 703 | 938 | 151 | 4 | ||
| 2025-12-05T23:33 | 1054 | 901 | 155 | 3 | ||
| 2025-12-05T23:33 | 1186 | 887 | 174 | 1 | ||
| 2025-12-05T23:34 | 1215 | 884 | 18.8 | 14.5 | ||
| 2025-12-05T23:34 | 1423 | 863 | 17.1 | 15.1 | ||
| 2025-12-05T23:34 | 1538 | 852 | 228 | 2 | ||
| 2025-12-05T23:35 | 1545 | 851 | 16.7 | 12.8 | ||
| 2025-12-05T23:35 | 1630 | 843 | 17.1 | 6.9 | ||
| 2025-12-05T23:35 | 1887 | 818 | 16.6 | 2.2 | ||
| 2025-12-05T23:35 | 1905 | 816 | 130 | 2 | ||
| 2025-12-05T23:36 | 1967 | 810 | 15.8 | 7.0 | ||
| 2025-12-05T23:36 | 2148 | 793 | 176 | 3 | ||
| 2025-12-05T23:36 | 2184 | 790 | 15.1 | 4.8 | ||
| 2025-12-05T23:36 | 2261 | 782 | 14.9 | 3.4 | ||
| 2025-12-05T23:37 | 2350 | 774 | 14.7 | 1.2 | ||
| 2025-12-05T23:37 | 2415 | 768 | 15.2 | -10.5 | ||
| 2025-12-05T23:37 | 2469 | 763 | 14.9 | 1.1 | ||
| 2025-12-05T23:37 | 2504 | 760 | 14.8 | 2.0 | 161 | 4 |
| 2025-12-05T23:37 | 2546 | 756 | 14.3 | 5.6 | ||
| 2025-12-05T23:38 | 2749 | 738 | 12.7 | 4.2 | ||
| 2025-12-05T23:38 | 2755 | 738 | 164 | 5 | ||
| 2025-12-05T23:38 | 2884 | 727 | 12.9 | -8.9 | ||
| 2025-12-05T23:38 | 2922 | 723 | 12.9 | -7.7 | ||
| 2025-12-05T23:38 | 2966 | 719 | 12.6 | -3.3 | ||
| 2025-12-05T23:39 | 3127 | 706 | 213 | 8 | ||
| 2025-12-05T23:39 | 3301 | 691 | 10.3 | -13.7 | ||
| 2025-12-05T23:40 | 3457 | 678 | 9.3 | -28.5 | ||
| 2025-12-05T23:40 | 3480 | 676 | 225 | 7 | ||
| 2025-12-05T23:40 | 3608 | 666 | 8.3 | -27.3 | ||
| 2025-12-05T23:41 | 3836 | 648 | 227 | 8 | ||
| 2025-12-05T23:41 | 3915 | 642 | 6.4 | -28.7 | ||
| 2025-12-05T23:42 | 4199 | 620 | 218 | 8 | ||
| 2025-12-05T23:42 | 4205 | 619 | 4.1 | -15.7 | ||
| 2025-12-05T23:42 | 4286 | 613 | 3.4 | -11.0 | ||
| 2025-12-05T23:43 | 4491 | 598 | 1.9 | -16.6 | ||
| 2025-12-05T23:43 | 4563 | 592 | 226 | 10 | ||
| 2025-12-05T23:43 | 4622 | 588 | 0.9 | -15.2 | ||
| 2025-12-05T23:43 | 4705 | 582 | -0.1 | -2.3 | ||
| 2025-12-05T23:43 | 4772 | 577 | -0.6 | -1.7 | ||
| 2025-12-05T23:44 | 4840 | 572 | -1.1 | -2.4 | ||
| 2025-12-05T23:44 | 4895 | 568 | -1.0 | -6.0 | ||
| 2025-12-05T23:44 | 4901 | 568 | 230 | 11 | ||
| 2025-12-05T23:44 | 4958 | 564 | -1.4 | -2.8 | ||
| 2025-12-05T23:44 | 5089 | 555 | -2.0 | -4.3 | ||
| 2025-12-05T23:45 | 5274 | 542 | 229 | 12 | ||
| 2025-12-05T23:45 | 5453 | 530 | -4.6 | -6.4 | ||
| 2025-12-05T23:46 | 5535 | 524 | -4.9 | -7.5 | ||
| 2025-12-05T23:46 | 5611 | 519 | -5.1 | -9.2 | ||
| 2025-12-05T23:46 | 5623 | 519 | 235 | 12 | ||
| 2025-12-05T23:46 | 5676 | 515 | -5.4 | -8.6 | ||
| 2025-12-05T23:47 | 5947 | 498 | -6.7 | -8.4 | ||
| 2025-12-05T23:47 | 5977 | 496 | 233 | 13 | ||
| 2025-12-05T23:47 | 6066 | 490 | -7.3 | -10.0 | ||
| 2025-12-05T23:47 | 6184 | 483 | -7.5 | -10.2 | ||
| 2025-12-05T23:48 | 6331 | 474 | 240 | 13 | ||
| 2025-12-05T23:48 | 6378 | 471 | -8.5 | -14.5 | ||
| 2025-12-05T23:48 | 6472 | 465 | -9.0 | -14.0 | ||
| 2025-12-05T23:48 | 6501 | 463 | 250 | 13 | ||
| 2025-12-05T23:49 | 6697 | 452 | 251 | 15 | ||
| 2025-12-05T23:49 | 6794 | 446 | -11.4 | -15.6 | ||
| 2025-12-05T23:49 | 6882 | 441 | -11.5 | -18.1 | ||
| 2025-12-05T23:50 | 7057 | 431 | 238 | 17 | ||
| 2025-12-05T23:50 | 7063 | 431 | -11.7 | -19.4 | ||
| 2025-12-05T23:50 | 7110 | 428 | -11.8 | -17.1 | ||
| 2025-12-05T23:50 | 7221 | 422 | -11.6 | -19.3 | ||
| 2025-12-05T23:51 | 7386 | 413 | -11.9 | -24.6 | ||
| 2025-12-05T23:51 | 7431 | 410 | 235 | 16 | ||
| 2025-12-05T23:52 | 7821 | 390 | 243 | 14 | ||
| 2025-12-05T23:52 | 7827 | 390 | -16.0 | -22.2 | ||
| 2025-12-05T23:53 | 8136 | 374 | -18.2 | -24.4 | ||
| 2025-12-05T23:53 | 8200 | 371 | 259 | 14 | ||
| 2025-12-05T23:53 | 8378 | 362 | 262 | 16 | ||
| 2025-12-05T23:53 | 8429 | 359 | -20.5 | -26.1 | ||
| 2025-12-05T23:54 | 8669 | 348 | -22.0 | -28.0 | ||
| 2025-12-05T23:54 | 8766 | 343 | 276 | 16 | ||
| 2025-12-05T23:54 | 8791 | 342 | -23.0 | -29.0 | ||
| 2025-12-05T23:55 | 9147 | 326 | 282 | 18 | ||
| 2025-12-05T23:55 | 9167 | 325 | -26.2 | -32.4 | ||
| 2025-12-05T23:55 | 9234 | 322 | -26.7 | -32.1 | ||
| 2025-12-05T23:56 | 9310 | 319 | -27.0 | -34.5 | ||
| 2025-12-05T23:56 | 9535 | 309 | -28.8 | -36.2 | ||
| 2025-12-05T23:56 | 9555 | 308 | 279 | 18 | ||
| 2025-12-05T23:57 | 9937 | 292 | 283 | 18 | ||
| 2025-12-05T23:57 | 9976 | 290 | -32.3 | -40.7 | ||
| 2025-12-05T23:58 | 10157 | 283 | -33.4 | -43.1 | ||
| 2025-12-05T23:58 | 10289 | 278 | 288 | 23 | ||
| 2025-12-05T23:58 | 10360 | 275 | -35.0 | -46.5 | ||
| 2025-12-05T23:59 | 10679 | 262 | 286 | 23 | ||
| 2025-12-06T00:00 | 10923 | 253 | -40.0 | -49.1 | ||
| 2025-12-06T00:00 | 11073 | 248 | 289 | 23 | ||
| 2025-12-06T00:01 | 11321 | 239 | 291 | 21 | ||
| 2025-12-06T00:02 | 11715 | 225 | 297 | 24 | ||
| 2025-12-06T00:03 | 12116 | 212 | 306 | 23 | ||
| 2025-12-06T00:04 | 12536 | 198 | 303 | 26 | ||
| 2025-12-06T00:05 | 12827 | 190 | 308 | 31 | ||
| 2025-12-06T00:05 | 12926 | 187 | -56.9 | |||
| 2025-12-06T00:06 | 13237 | 178 | 311 | 33 | ||
| 2025-12-06T00:06 | 13463 | 171 | -59.9 | |||
| 2025-12-06T00:06 | 13588 | 168 | 309 | 28 | ||
| 2025-12-06T00:07 | 13859 | 161 | 311 | 31 | ||
| 2025-12-06T00:08 | 14353 | 148 | 307 | 21 | ||
| 2025-12-06T00:08 | 14558 | 143 | -66.8 | |||
| 2025-12-06T00:09 | 14655 | 141 | 278 | 14 | ||
| 2025-12-06T00:09 | 14795 | 138 | -67.1 | |||
| 2025-12-06T00:09 | 14978 | 134 | 264 | 15 | ||
| 2025-12-06T00:10 | 15360 | 125 | 258 | 17 | ||
| 2025-12-06T00:11 | 15791 | 116 | 268 | 17 | ||
| 2025-12-06T00:12 | 16273 | 107 | 284 | 15 | ||
| 2025-12-06T00:13 | 16485 | 103 | -80.7 | |||
| 2025-12-06T00:13 | 16645 | 100 | 294 | 14 | ||
| 2025-12-06T00:13 | 16653 | 100 | -81.3 | |||
| 2025-12-06T00:13 | 16797 | 98 | -79.5 | |||
| 2025-12-06T00:14 | 16914 | 96 | 311 | 11 | ||
| 2025-12-06T00:14 | 17115 | 92 | -80.8 | |||
| 2025-12-06T00:14 | 17290 | 89 | 308 | 8 | ||
| 2025-12-06T00:15 | 17547 | 85 | 295 | 8 | ||
| 2025-12-06T00:15 | 17577 | 85 | -82.7 | |||
| 2025-12-06T00:15 | 17696 | 83 | -80.9 | |||
| 2025-12-06T00:15 | 17749 | 82 | 303 | 4 | ||
| 2025-12-06T00:16 | 18004 | 79 | 272 | 5 | ||
| 2025-12-06T00:16 | 18227 | 76 | -83.9 | |||
| 2025-12-06T00:17 | 18435 | 73 | 352 | 9 | ||
| 2025-12-06T00:17 | 18563 | 71 | 38 | 4 | ||
| 2025-12-06T00:17 | 18726 | 69 | 150 | 3 | ||
| 2025-12-06T00:18 | 18813 | 68 | -83.3 | |||
| 2025-12-06T00:18 | 18865 | 67 | 17 | 1 | ||
| 2025-12-06T00:18 | 19076 | 65 | 74 | 6 | ||
| 2025-12-06T00:18 | 19135 | 64 | -79.6 | |||
| 2025-12-06T00:19 | 19299 | 62 | 91 | 6 | ||
| 2025-12-06T00:19 | 19451 | 61 | -80.0 | |||
| 2025-12-06T00:19 | 19500 | 60 | 96 | 7 | ||
| 2025-12-06T00:19 | 19575 | 59 | -78.6 | |||
| 2025-12-06T00:20 | 19693 | 58 | 120 | 6 | ||
| 2025-12-06T00:20 | 19704 | 58 | -74.4 | |||
| 2025-12-06T00:20 | 19959 | 56 | -74.0 | |||
| 2025-12-06T00:21 | 20044 | 55 | -72.6 | 74 | 5 | |
| 2025-12-06T00:21 | 20132 | 54 | -70.8 | |||
| 2025-12-06T00:21 | 20357 | 52 | 91 | 8 | ||
| 2025-12-06T00:22 | 20650 | 50 | -68.6 | |||
| 2025-12-06T00:22 | 20711 | 49 | 55 | 8 | ||
| 2025-12-06T00:23 | 21134 | 46 | 60 | 11 | ||
| 2025-12-06T00:24 | 21535 | 43 | 85 | 12 | ||
| 2025-12-06T00:24 | 21550 | 43 | -66.3 | |||
| 2025-12-06T00:25 | 21814 | 41 | -64.3 | |||
| 2025-12-06T00:25 | 21832 | 41 | 97 | 9 | ||
| 2025-12-06T00:25 | 22077 | 39 | 89 | 6 | ||
| 2025-12-06T00:25 | 22107 | 39 | -63.6 | |||
| 2025-12-06T00:26 | 22249 | 38 | 32 | 2 | ||
| 2025-12-06T00:26 | 22381 | 37 | 330 | 3 | ||
| 2025-12-06T00:27 | 22600 | 36 | 22 | 5 | ||
| 2025-12-06T00:27 | 22914 | 34 | 60 | 9 | ||
| 2025-12-06T00:28 | 23099 | 33 | 65 | 7 | ||
| 2025-12-06T00:28 | 23364 | 32 | 93 | 4 | ||
| 2025-12-06T00:29 | 23540 | 31 | 106 | 6 | ||
| 2025-12-06T00:29 | 23681 | 30 | 96 | 3 | ||
| 2025-12-06T00:29 | 23785 | 30 | -62.3 | |||
| 2025-12-06T00:29 | 23807 | 30 | 71 | 4 | ||
| 2025-12-06T00:30 | 24109 | 28 | 58 | 4 | ||
| 2025-12-06T00:31 | 24497 | 26 | 138 | 6 | ||
| 2025-12-06T00:31 | 24666 | 26 | 151 | 9 | ||
| 2025-12-06T00:32 | 24816 | 25 | -56.9 | |||
| 2025-12-06T00:32 | 24869 | 25 | 121 | 9 | ||
| 2025-12-06T00:33 | 25150 | 24 | 125 | 7 | ||
| 2025-12-06T00:33 | 25178 | 24 | -57.0 | |||
| 2025-12-06T00:33 | 25424 | 23 | 132 | 7 | ||
| 2025-12-06T00:34 | 25649 | 22 | 128 | 4 | ||
| 2025-12-06T00:34 | 25885 | 21 | 233 | 3 | ||
| 2025-12-06T00:34 | 25916 | 21 | -54.2 | |||
| 2025-12-06T00:35 | 26326 | 20 | 289 | 4 | ||
| 2025-12-06T00:35 | 26492 | 19 | 341 | 3 | ||
| 2025-12-06T00:35 | 26527 | 19 | 2 | 3 | ||
| 2025-12-06T00:36 | 26628 | 19 | 62 | 4 | ||
| 2025-12-06T00:36 | 26663 | 19 | -51.2 | |||
| 2025-12-06T00:36 | 26801 | 18 | 79 | 8 | ||
| 2025-12-06T00:37 | 27019 | 18 | 58 | 6 | ||
| 2025-12-06T00:38 | 27475 | 17 | 97 | 10 | ||
| 2025-12-06T00:38 | 27671 | 16 | -51.1 | |||
| 2025-12-06T00:39 | 27961 | 15 | 127 | 8 | ||
| 2025-12-06T00:39 | 28308 | 15 | 112 | 8 | ||
| 2025-12-06T00:40 | 28625 | 14 | 98 | 9 | ||
| 2025-12-06T00:40 | 28811 | 14 | -52.9 | |||
| 2025-12-06T00:41 | 29107 | 13 | 79 | 9 | ||
| 2025-12-06T00:41 | 29259 | 13 | -52.4 | |||
| 2025-12-06T00:42 | 29628 | 12 | 120 | 9 | ||
| 2025-12-06T00:43 | 29843 | 12 | -53.5 | |||
| 2025-12-06T00:43 | 29902 | 11 | 160 | 13 | ||
| 2025-12-06T00:43 | 30128 | 11 | 153 | 6 | ||
| 2025-12-06T00:43 | 30250 | 11 | -53.1 | |||
| 2025-12-06T00:44 | 30372 | 11 | 88 | 6 | ||
| 2025-12-06T00:44 | 30678 | 10 | 75 | 14 | ||
| 2025-12-06T00:45 | 30874 | 10 | -55.6 | |||
| 2025-12-06T00:45 | 30942 | 10 | -55.3 | 96 | 18 | |
| 2025-12-06T11:30 | 9 | 1015 | 26.4 | 23.7 | 120 | 2 |
| 2025-12-06T11:30 | 12 | 1015 | 26.7 | 23.8 | 0 | 0 |
| 2025-12-06T11:30 | 33 | 1012 | 146 | 3 | ||
| 2025-12-06T11:31 | 322 | 980 | 24.3 | 22.0 | ||
| 2025-12-06T11:31 | 345 | 977 | 118 | 4 | ||
| 2025-12-06T11:31 | 486 | 961 | 132 | 4 | ||
| 2025-12-06T11:32 | 665 | 942 | 120 | 4 | ||
| 2025-12-06T11:33 | 916 | 915 | 19.9 | 17.9 | ||
| 2025-12-06T11:33 | 970 | 909 | 128 | 6 | ||
| 2025-12-06T11:34 | 1320 | 873 | 122 | 6 | ||
| 2025-12-06T11:34 | 1487 | 856 | 16.0 | 14.9 | ||
| 2025-12-06T11:34 | 1558 | 849 | 15.9 | 15.3 | ||
| 2025-12-06T11:35 | 1673 | 838 | 131 | 7 | ||
| 2025-12-06T11:35 | 1765 | 829 | 15.1 | 14.6 | ||
| 2025-12-06T11:36 | 1974 | 808 | 137 | 6 | ||
| 2025-12-06T11:36 | 2238 | 784 | 12.9 | 12.3 | ||
| 2025-12-06T11:37 | 2334 | 775 | 176 | 7 | ||
| 2025-12-06T11:37 | 2456 | 763 | 10.8 | 7.3 | ||
| 2025-12-06T11:37 | 2626 | 748 | 9.5 | 2.1 | ||
| 2025-12-06T11:38 | 2681 | 743 | 11.1 | -0.7 | ||
| 2025-12-06T11:38 | 2699 | 741 | 182 | 5 | ||
| 2025-12-06T11:38 | 2753 | 737 | 13.1 | -6.5 | ||
| 2025-12-06T11:38 | 2845 | 728 | 12.9 | -4.3 | ||
| 2025-12-06T11:38 | 2981 | 717 | 12.7 | -14.1 | ||
| 2025-12-06T11:39 | 3058 | 710 | 229 | 6 | ||
| 2025-12-06T11:39 | 3197 | 699 | 10.9 | -10.0 | ||
| 2025-12-06T11:40 | 3447 | 678 | 216 | 5 | ||
| 2025-12-06T11:40 | 3573 | 668 | 8.5 | -18.4 | ||
| 2025-12-06T11:40 | 3660 | 661 | 8.1 | -16.2 | ||
| 2025-12-06T11:40 | 3728 | 655 | 7.9 | -13.1 | ||
| 2025-12-06T11:41 | 3821 | 648 | 233 | 7 | ||
| 2025-12-06T11:41 | 3864 | 644 | 6.8 | -10.5 | ||
| 2025-12-06T11:41 | 3925 | 640 | 6.2 | -5.8 | ||
| 2025-12-06T11:41 | 4106 | 626 | 5.3 | -10.1 | ||
| 2025-12-06T11:42 | 4185 | 620 | 238 | 9 | ||
| 2025-12-06T11:42 | 4325 | 609 | 3.6 | -4.1 | ||
| 2025-12-06T11:42 | 4363 | 606 | 3.3 | -2.9 | ||
| 2025-12-06T11:42 | 4413 | 603 | 3.3 | -7.2 | ||
| 2025-12-06T11:42 | 4521 | 595 | 2.3 | -4.2 | ||
| 2025-12-06T11:43 | 4559 | 592 | 242 | 7 | ||
| 2025-12-06T11:43 | 4565 | 591 | 1.8 | -1.6 | ||
| 2025-12-06T11:43 | 4700 | 581 | 0.9 | -3.6 | ||
| 2025-12-06T11:43 | 4757 | 577 | 1.0 | -11.4 | ||
| 2025-12-06T11:43 | 4815 | 573 | 0.8 | -13.7 | ||
| 2025-12-06T11:43 | 4891 | 568 | 0.3 | -9.2 | ||
| 2025-12-06T11:44 | 4943 | 564 | 239 | 9 | ||
| 2025-12-06T11:44 | 4993 | 561 | -0.1 | -14.1 | ||
| 2025-12-06T11:44 | 5076 | 555 | -1.0 | -6.5 | ||
| 2025-12-06T11:44 | 5159 | 549 | -1.6 | -7.3 | ||
| 2025-12-06T11:44 | 5241 | 543 | -1.7 | -9.6 | ||
| 2025-12-06T11:45 | 5323 | 538 | 237 | 9 | ||
| 2025-12-06T11:45 | 5348 | 536 | -2.4 | -8.9 | ||
| 2025-12-06T11:45 | 5438 | 530 | -2.9 | -11.6 | ||
| 2025-12-06T11:45 | 5490 | 527 | -3.2 | -12.9 | ||
| 2025-12-06T11:45 | 5601 | 519 | -3.6 | -17.2 | ||
| 2025-12-06T11:46 | 5713 | 512 | 240 | 11 | ||
| 2025-12-06T11:46 | 5859 | 503 | -5.5 | -11.4 | ||
| 2025-12-06T11:47 | 6092 | 488 | -7.1 | -10.4 | ||
| 2025-12-06T11:47 | 6112 | 487 | 257 | 8 | ||
| 2025-12-06T11:47 | 6252 | 478 | -8.1 | -12.8 | ||
| 2025-12-06T11:47 | 6350 | 472 | -8.5 | -14.3 | ||
| 2025-12-06T11:47 | 6447 | 466 | -9.1 | -14.7 | ||
| 2025-12-06T11:48 | 6505 | 463 | 260 | 12 | ||
| 2025-12-06T11:48 | 6511 | 462 | -9.4 | -16.8 | ||
| 2025-12-06T11:48 | 6599 | 457 | -9.8 | -18.3 | ||
| 2025-12-06T11:48 | 6643 | 454 | -9.9 | -14.9 | ||
| 2025-12-06T11:48 | 6681 | 452 | -10.1 | -14.9 | ||
| 2025-12-06T11:48 | 6756 | 448 | -10.6 | -12.5 | ||
| 2025-12-06T11:48 | 6810 | 445 | -10.7 | -15.8 | ||
| 2025-12-06T11:48 | 6852 | 442 | -10.9 | -14.5 | ||
| 2025-12-06T11:49 | 6876 | 441 | 259 | 15 | ||
| 2025-12-06T11:49 | 6888 | 440 | -11.0 | -17.9 | ||
| 2025-12-06T11:49 | 6918 | 438 | -10.9 | -24.1 | ||
| 2025-12-06T11:49 | 6960 | 436 | -11.1 | -21.8 | ||
| 2025-12-06T11:49 | 7014 | 433 | -11.6 | -18.2 | ||
| 2025-12-06T11:49 | 7056 | 431 | -11.9 | -16.8 | ||
| 2025-12-06T11:49 | 7129 | 426 | -12.5 | -15.4 | ||
| 2025-12-06T11:50 | 7239 | 420 | 260 | 15 | ||
| 2025-12-06T11:50 | 7365 | 413 | -14.0 | -17.2 | ||
| 2025-12-06T11:50 | 7519 | 405 | -14.4 | -21.9 | ||
| 2025-12-06T11:51 | 7594 | 401 | -14.9 | -22.6 | 262 | 18 |
| 2025-12-06T11:51 | 7659 | 398 | -15.3 | -25.1 | ||
| 2025-12-06T11:51 | 7801 | 390 | -15.9 | -28.5 | ||
| 2025-12-06T11:51 | 7842 | 388 | 258 | 18 | ||
| 2025-12-06T11:51 | 7912 | 385 | -16.7 | -26.6 | ||
| 2025-12-06T11:52 | 8052 | 377 | -18.0 | -24.8 | ||
| 2025-12-06T11:52 | 8166 | 372 | 250 | 20 | ||
| 2025-12-06T11:52 | 8184 | 371 | -19.0 | -25.6 | ||
| 2025-12-06T11:52 | 8233 | 368 | -19.3 | -26.1 | ||
| 2025-12-06T11:52 | 8282 | 366 | -19.7 | -26.9 | ||
| 2025-12-06T11:53 | 8325 | 364 | -19.9 | -29.0 | ||
| 2025-12-06T11:53 | 8411 | 360 | -20.7 | -26.1 | ||
| 2025-12-06T11:53 | 8538 | 354 | 254 | 19 | ||
| 2025-12-06T11:53 | 8584 | 351 | -22.1 | -25.8 | ||
| 2025-12-06T11:54 | 8875 | 338 | -24.3 | -28.5 | ||
| 2025-12-06T11:54 | 8925 | 335 | 253 | 19 | ||
| 2025-12-06T11:54 | 9047 | 330 | -25.6 | -30.7 | ||
| 2025-12-06T11:55 | 9221 | 322 | -27.0 | -31.4 | ||
| 2025-12-06T11:55 | 9305 | 318 | 257 | 22 | ||
| 2025-12-06T11:55 | 9331 | 317 | -26.9 | -42.7 | ||
| 2025-12-06T11:56 | 9459 | 311 | -27.2 | -43.4 | ||
| 2025-12-06T11:56 | 9511 | 309 | -27.8 | -38.3 | ||
| 2025-12-06T11:56 | 9661 | 303 | -29.0 | -36.4 | ||
| 2025-12-06T11:56 | 9693 | 302 | 261 | 20 | ||
| 2025-12-06T11:56 | 9771 | 298 | -29.6 | -38.4 | ||
| 2025-12-06T11:57 | 10098 | 285 | 267 | 20 | ||
| 2025-12-06T11:58 | 10263 | 278 | -33.7 | -42.4 | ||
| 2025-12-06T11:58 | 10516 | 268 | 275 | 20 | ||
| 2025-12-06T11:59 | 10925 | 253 | -40.0 | -45.6 | ||
| 2025-12-06T11:59 | 10940 | 252 | 276 | 21 | ||
| 2025-12-06T12:00 | 11379 | 236 | 286 | 20 | ||
| 2025-12-06T12:01 | 11793 | 222 | 288 | 24 | ||
| 2025-12-06T12:01 | 11875 | 219 | -47.5 | |||
| 2025-12-06T12:02 | 12101 | 212 | 294 | 26 | ||
| 2025-12-06T12:02 | 12305 | 206 | -50.5 | |||
| 2025-12-06T12:03 | 12499 | 199 | 306 | 31 | ||
| 2025-12-06T12:04 | 12873 | 188 | 314 | 31 | ||
| 2025-12-06T12:05 | 13290 | 176 | 316 | 27 | ||
| 2025-12-06T12:05 | 13297 | 176 | -57.1 | |||
| 2025-12-06T12:06 | 13690 | 165 | -58.9 | |||
| 2025-12-06T12:06 | 13754 | 164 | 313 | 19 | ||
| 2025-12-06T12:07 | 14194 | 153 | 283 | 18 | ||
| 2025-12-06T12:08 | 14671 | 141 | 267 | 22 | ||
| 2025-12-06T12:09 | 15166 | 130 | 266 | 21 | ||
| 2025-12-06T12:09 | 15207 | 129 | -71.8 | |||
| 2025-12-06T12:10 | 15690 | 119 | 268 | 17 | ||
| 2025-12-06T12:11 | 16168 | 109 | 284 | 14 | ||
| 2025-12-06T12:11 | 16468 | 104 | -79.5 | |||
| 2025-12-06T12:12 | 16598 | 101 | 295 | 12 | ||
| 2025-12-06T12:12 | 16681 | 100 | -78.5 | |||
| 2025-12-06T12:12 | 16816 | 97 | 315 | 9 | ||
| 2025-12-06T12:12 | 16828 | 97 | -80.5 | 322 | 8 | |
| 2025-12-06T23:30 | 9 | 1013 | 28.5 | 24.3 | 180 | 4 |
| 2025-12-06T23:30 | 12 | 1012 | 28.1 | 24.1 | 148 | 1 |
| 2025-12-06T23:30 | 26 | 1011 | 27.3 | 23.1 | ||
| 2025-12-06T23:30 | 52 | 1008 | 180 | 3 | ||
| 2025-12-06T23:30 | 107 | 1001 | 26.2 | 22.5 | ||
| 2025-12-06T23:31 | 334 | 976 | 24.2 | 21.1 | ||
| 2025-12-06T23:31 | 410 | 968 | 157 | 8 |
Only the first 2000 rows were shown. To view the complete dataset, download it as tab-delimited text. You can still view the full matrix in your browser, but be aware that this may crash the browser due to the huge size.
